| Place | Name | Time | Raw score | Score |
|---|---|---|---|---|
| 1 | -DarkLlama- | 1:09.02 | 1,000 | 293 |
| 2 | Siyzerix | 1:09.63 | 900 | 263 |
| 3 | pigpenguin | 1:10.14 | 859 | 251 |
| 4 | Ferreus | 1:10.23 | 827 | 242 |
| 5 | Kinix | 1:11.72 | 800 | 234 |
| 6 | Homulilly (Witch) | 1:12.33 | 777 | 227 |
| 7 | Backgrounds' | 1:13.28 | 756 | 221 |
| 8 | SlowScan | 1:14.01 | 736 | 215 |
| 9 | tawnted | 1:14.61 | 718 | 210 |
| 10 | XiQu3sT | 1:16.34 | 700 | 205 |
| 11 | Void Concept | 1:16.85 | 684 | 200 |
| 12 | jason | 1:17.72 | 669 | 196 |
| 13 | Freud | 1:18.83 | 654 | 191 |
| 13 | Jay2a | 1:18.83 | 654 | 191 |
| 15 | IllKIllU | 1:18.95 | 626 | 183 |
| 16 | Alopex | 1:20.40 | 613 | 179 |
| 17 | KnightBane | 1:20.56 | 600 | 176 |
| 18 | The Dank Magician | 1:20.81 | 588 | 172 |
| 19 | Nico | 1:22.42 | 576 | 169 |
| 20 | CodedCrow | 1:22.77 | 565 | 165 |
| 21 | OMANEYE | 1:23.21 | 553 | 162 |
| 22 | WiteNite | 1:26.52 | 542 | 159 |
| 23 | Tribow | 1:27.73 | 531 | 155 |
| 24 | Nerf | 1:29.06 | 521 | 152 |
| 25 | TS_Mind_Swept | 1:33.53 | 511 | 150 |
| 26 | Polly | 1:34.09 | 500 | 146 |
| 27 | lefor0416 | 1:44.99 | 491 | 144 |
| 28 | gusforester | 1:50.75 | 481 | 141 |
| 29 | Haunted Pleb | 1:52.78 | 471 | 138 |
| 30 | Bridge | 2:04.20 | 462 | 135 |
| 31 | Epsilon_Knight | 2:04.51 | 453 | 133 |
| 32 | Zany | 2:06.38 | 444 | 130 |
| 33 | GaiaGaiyus | 2:14.47 | 435 | 127 |
| 34 | Maxter Max | 2:16.41 | 426 | 125 |
| 35 | Draygone | 2:17.27 | 417 | 122 |
| 36 | slug ʕ●.●ʔ | 2:17.85 | 409 | 120 |
| 37 | notguts | 2:18.78 | 400 | 117 |
| 38 | FluffyTheZombii | 2:19.08 | 392 | 115 |
| 39 | Other XIX | 2:19.50 | 384 | 112 |
| 40 | Paparazzi | 2:19.74 | 376 | 110 |
| 40 | i0nTempest | 2:19.74 | 376 | 110 |
| 42 | ペレリン | 2:19.80 | 360 | 105 |
| 43 | PathToV1ctory | 2:19.82 | 352 | 103 |
| 44 | Sidewinder Fang | 2:20.06 | 345 | 101 |
| 45 | Predatory_Balloon | 2:20.21 | 337 | 99 |
| 46 | Seinah | 2:20.26 | 330 | 97 |
| 47 | Subnet001 | 2:20.51 | 322 | 94 |
| 48 | Latapi | 2:20.54 | 315 | 92 |
| 49 | Darklight | 2:20.57 | 308 | 90 |
| 50 | kriz_chan | 2:20.63 | 300 | 88 |
| 51 | baakstaff | 2:20.68 | 293 | 86 |
| 52 | Mar_Veloz | 2:20.75 | 286 | 84 |
| 53 | Swizy | 2:20.81 | 279 | 82 |
| 54 | Spaceburger | 2:20.87 | 272 | 80 |
| 55 | fentanyl lover <3 | 2:21.04 | 266 | 78 |
| 56 | MERC | 2:21.17 | 259 | 76 |
| 57 | Californ1a | 2:21.19 | 252 | 74 |
| 58 | CIGGY DEMON | 2:21.23 | 246 | 72 |
| 59 | Dreigo | 2:21.26 | 239 | 70 |
| 60 | snugglebottom | 2:21.28 | 232 | 68 |
| 61 | DefenderOfHyrule | 2:21.33 | 226 | 66 |
| 62 | Camel | 2:21.39 | 219 | 64 |
| 63 | Samn | 2:21.41 | 213 | 62 |
| 64 | Jarminx | 2:21.44 | 207 | 61 |
| 65 | CrazyMaurice120 | 2:21.49 | 200 | 59 |
| 66 | Shikhuh | 2:21.50 | 194 | 57 |
| 67 | Wolf Black | 2:21.53 | 188 | 55 |
| 68 | Melliya/芽璃夜 | 2:21.55 | 182 | 53 |
| 69 | TheEPROM9 LaTeX | 2:21.60 | 176 | 51 |
| 70 | Waonder | 2:21.63 | 170 | 50 |
| 70 | khrisround2 | 2:21.63 | 170 | 50 |
| 70 | Minecraft-pro | 2:21.63 | 170 | 50 |
| 73 | Formidable | 2:21.68 | 152 | 44 |
| 74 | burger | 2:21.72 | 146 | 43 |
| 75 | Cyronic | 2:21.74 | 140 | 41 |
| 76 | Seschbee | 2:21.77 | 134 | 39 |
| 77 | The Unusual Suspect | 2:21.80 | 129 | 38 |
| 77 | M500 | 2:21.80 | 129 | 38 |
| 79 | Griiig | 2:21.84 | 117 | 34 |
| 80 | AnteVictoriam | 2:21.85 | 112 | 33 |
| 81 | r4pt0r | 2:21.87 | 106 | 31 |
| 82 | HyperNova | 2:21.88 | 100 | 29 |
| 82 | [deleted] | 2:21.88 | 100 | 29 |
| 84 | PinesOfChaos | 2:21.89 | 89 | 26 |
| 85 | Ebeta2 | 2:21.90 | 84 | 25 |
| 86 | Depth | 2:21.91 | 79 | 23 |
| 86 | Aiko | 2:21.91 | 79 | 23 |
| 88 | levinv270 | 2:21.92 | 68 | 20 |
| 89 | A Moldy Orange | 2:21.94 | 62 | 18 |
| 90 | krizithy | 2:21.97 | 57 | 17 |
| 91 | G9 | 2:21.98 | 52 | 15 |
| 92 | :sthappy: | frag! | 2:22.02 | 47 | 14 |
| 92 | Overlord | 2:22.02 | 47 | 14 |
| 94 | Orion | 2:22.07 | 36 | 11 |
| 95 | Hijacker02 | 2:22.13 | 31 | 9 |
| 96 | Whitender | 2:22.14 | 26 | 8 |
| 97 | Flaminglump | 2:22.15 | 21 | 6 |
| 98 | DROCHEPOLK | 2:22.18 | 16 | 5 |
| 99 | Lethologica7 | 2:22.19 | 11 | 3 |
| 99 | ★ ADDON ★ | 2:22.19 | 11 | 3 |
| 101 | RetaliationGuy YT | 2:22.22 | 0 | 0 |
| 102 | MCrekna1 | 2:22.24 | 0 | 0 |
| 103 | A05Polzar | 2:22.28 | 0 | 0 |
| 104 | SlyPai | 2:22.29 | 0 | 0 |
| 105 | lucascool12 | 2:22.31 | 0 | 0 |
| 106 | A.K.S. | 2:22.32 | 0 | 0 |
| 107 | RaiderZulu | 2:22.35 | 0 | 0 |
| 108 | Ruslan145 | 2:22.37 | 0 | 0 |
| 109 | Phazyo Knight | 2:22.38 | 0 | 0 |
| 110 | Numerousluke | 2:22.39 | 0 | 0 |
| 111 | Pompous Whale | 2:22.40 | 0 | 0 |
| 112 | hcg106 | 2:22.42 | 0 | 0 |
| 113 | Plasmawario | 2:22.44 | 0 | 0 |
| 113 | Loopsty | 2:22.44 | 0 | 0 |
| 115 | Rayne Hellfire | 2:22.45 | 0 | 0 |
| 116 | TinFoilMkIV | 2:22.46 | 0 | 0 |
| 117 | Izzel | 2:22.48 | 0 | 0 |
| 117 | BishopAdams | 2:22.48 | 0 | 0 |
| 119 | Ivoryshovel | 2:22.49 | 0 | 0 |
| 120 | bacon | 2:22.51 | 0 | 0 |
| 121 | JayBoneJay | 2:22.53 | 0 | 0 |
| 122 | cptnbean | 2:22.54 | 0 | 0 |
| 123 | mrahc | 2:22.56 | 0 | 0 |
| 124 | Qioury | 2:22.58 | 0 | 0 |
| 125 | Monark10 | 2:22.59 | 0 | 0 |
| 126 | AndrewToTheMax | 2:22.61 | 0 | 0 |
| 127 | Dislin | 2:22.62 | 0 | 0 |
| 127 | Your Lad, Thin Richard | 2:22.62 | 0 | 0 |
| 127 | VI_fizz | 2:22.62 | 0 | 0 |
| 127 | Sun | 2:22.62 | 0 | 0 |
| 131 | SX64 | 2:22.64 | 0 | 0 |
| 132 | NeonChaosAwoo | 2:22.65 | 0 | 0 |
| 133 | ReallyDumbFox | 2:22.66 | 0 | 0 |
| 134 | Winter's Crescendo | 2:22.67 | 0 | 0 |
| 134 | Terrapin | 2:22.67 | 0 | 0 |
| 136 | Inzarin | 2:22.68 | 0 | 0 |
| 137 | Гвоздь | 2:22.69 | 0 | 0 |
| 137 | JDthe3rd | 2:22.69 | 0 | 0 |
| 137 | Nero | 2:22.69 | 0 | 0 |
| 137 | LeFluffySquirrel | 2:22.69 | 0 | 0 |
| 141 | Weskil | 2:22.70 | 0 | 0 |
| 141 | Mongà Mongà | 2:22.70 | 0 | 0 |
| 143 | EleventyB | 2:22.72 | 0 | 0 |
| 144 | Defect | 2:22.75 | 0 | 0 |
| 144 | TheMelonGod | 2:22.75 | 0 | 0 |
| 146 | TerraHawk | 2:22.76 | 0 | 0 |
| 147 | Legion495 | 2:22.77 | 0 | 0 |
| 147 | Nickel | 2:22.77 | 0 | 0 |
| 147 | Joti | 2:22.77 | 0 | 0 |
| 150 | [BIT]SnepSpecialist | 2:22.78 | 0 | 0 |
| 151 | Rusty | 2:22.79 | 0 | 0 |
| 152 | Blahaj Blast | 2:22.81 | 0 | 0 |
| 152 | Sunnydan | 2:22.81 | 0 | 0 |
| 154 | Innerste | 2:22.84 | 0 | 0 |
| 155 | Sébastien Lecornu II | 2:22.85 | 0 | 0 |
| 155 | s00 | 2:22.85 | 0 | 0 |
| 157 | [deleted] | 2:22.87 | 0 | 0 |
| 158 | Disatroja | 2:22.90 | 0 | 0 |
| 158 | Tiyenti | 2:22.90 | 0 | 0 |
| 158 | Jimmy Gibbs | 2:22.90 | 0 | 0 |
| 161 | Velocitas | 2:22.91 | 0 | 0 |
| 162 | omena | 2:22.92 | 0 | 0 |
| 163 | Hayden | 2:22.93 | 0 | 0 |
| 164 | Defiance_LLK | 2:22.94 | 0 | 0 |
| 165 | kashyyyke | 2:22.95 | 0 | 0 |
| 165 | Domino | 2:22.95 | 0 | 0 |
| 167 | AZERA | 2:22.96 | 0 | 0 |
| 168 | Curious Fish | 2:22.97 | 0 | 0 |
| 169 | Buck | 2:22.98 | 0 | 0 |
| 169 | Viridus | 2:22.98 | 0 | 0 |
| 169 | Nielzos | 2:22.98 | 0 | 0 |
| 172 | Fwiffo | 2:22.99 | 0 | 0 |
| 173 | notwa | 2:23.00 | 0 | 0 |
| 173 | dinkleb3rg | 2:23.00 | 0 | 0 |
| 175 | A̶͓̓z̷͓̍ũ̴̩r̷͔͐e̴ | 2:23.01 | 0 | 0 |
| 176 | Quirked-up White Boy | 2:23.02 | 0 | 0 |
| 177 | Battle Banana Chris Handsom | 2:23.03 | 0 | 0 |
| 177 | PineFreshGuy | 2:23.03 | 0 | 0 |
| 179 | pcl219 | 2:23.04 | 0 | 0 |
| 179 | itsukarine | 2:23.04 | 0 | 0 |
| 179 | Woren | 2:23.04 | 0 | 0 |
| 179 | Azure Zakura | 2:23.04 | 0 | 0 |
| 183 | Dosilox | 2:23.05 | 0 | 0 |
| 183 | TheEvilMidnightBomber | 2:23.05 | 0 | 0 |
| 185 | Misplaymaker | 2:23.06 | 0 | 0 |
| 186 | Ozymandias | 2:23.07 | 0 | 0 |
| 187 | TheWanderer05 | 2:23.08 | 0 | 0 |
| 187 | Gray. | 2:23.08 | 0 | 0 |
| 189 | Simon Evo | 2:23.09 | 0 | 0 |
| 189 | Kaliphear | 2:23.09 | 0 | 0 |
| 189 | Racheecha | 2:23.09 | 0 | 0 |
| 192 | codename_rb | 2:23.10 | 0 | 0 |
| 192 | Delhjiko | 2:23.10 | 0 | 0 |
| 194 | Kibōchen | 2:23.11 | 0 | 0 |
| 194 | SirDan | 2:23.11 | 0 | 0 |
| 196 | Jorban | 2:23.12 | 0 | 0 |
| 197 | trigger_segfault | 2:23.13 | 0 | 0 |
| 197 | Monument576 | 2:23.13 | 0 | 0 |
| 199 | Yarimi | 2:23.14 | 0 | 0 |
| 200 | DisQorded | 2:23.16 | 0 | 0 |
| 200 | Timme701 | 2:23.16 | 0 | 0 |
| 202 | Skuzzles | 2:23.17 | 0 | 0 |
| 202 | Torja! | 2:23.17 | 0 | 0 |
| 202 | Legoyoda | 2:23.17 | 0 | 0 |
| 202 | Chase | 2:23.17 | 0 | 0 |
| 206 | Mr Elusive | 2:23.19 | 0 | 0 |
| 206 | LobaDK | 2:23.19 | 0 | 0 |
| 208 | MP X10L | 2:23.20 | 0 | 0 |
| 208 | Xeno146 | 2:23.20 | 0 | 0 |
| 208 | Not a Clever Pony | 2:23.20 | 0 | 0 |
| 211 | 4onen | 2:23.21 | 0 | 0 |
| 212 | Emerald_Pick | 2:23.22 | 0 | 0 |
| 213 | Ion | 2:23.23 | 0 | 0 |
| 213 | Zilby | 2:23.23 | 0 | 0 |
| 215 | // Vaffe | 2:23.24 | 0 | 0 |
| 215 | Azure | 2:23.24 | 0 | 0 |
| 217 | Birb | 2:23.25 | 0 | 0 |
| 217 | Tem | 2:23.25 | 0 | 0 |
| 219 | onyxglow | 2:23.26 | 0 | 0 |
| 219 | Jarek718 | 2:23.26 | 0 | 0 |
| 219 | Luminous | 2:23.26 | 0 | 0 |
| 222 | skuzzzy | 2:23.27 | 0 | 0 |
| 222 | lift your tail for me | 2:23.27 | 0 | 0 |
| 222 | Edragon13 | 2:23.27 | 0 | 0 |
| 225 | Derdoron | 2:23.28 | 0 | 0 |
| 225 | Cancer Liquid | 2:23.28 | 0 | 0 |
| 227 | thatlunchboxguy | 2:23.29 | 0 | 0 |
| 228 | Nickerb | 2:23.30 | 0 | 0 |
| 228 | MatscheMunkey | 2:23.30 | 0 | 0 |
| 230 | elSamu | 2:23.31 | 0 | 0 |
| 230 | GLUBBA | 2:23.31 | 0 | 0 |
| 230 | S'more | 2:23.31 | 0 | 0 |
| 233 | Sky Captain | 2:23.32 | 0 | 0 |
| 233 | The K-man | 2:23.32 | 0 | 0 |
| 235 | GaMiiX46 | 2:23.33 | 0 | 0 |
| 236 | Kosvid | 2:23.34 | 0 | 0 |
| 237 | Viridian | 2:23.35 | 0 | 0 |
| 238 | Tuman125 | 2:23.36 | 0 | 0 |
| 238 | danny1234331 | 2:23.36 | 0 | 0 |
| 240 | SupaSnor | 2:23.37 | 0 | 0 |
| 240 | RushingMonk3y | 2:23.37 | 0 | 0 |
| 242 | JaServus | 2:23.38 | 0 | 0 |
| 242 | Teuntjuhh | 2:23.38 | 0 | 0 |
| 242 | Retromancer | 2:23.38 | 0 | 0 |
| 245 | Mini_Kai | 2:23.41 | 0 | 0 |
| 246 | DON DIGIDON | 2:23.42 | 0 | 0 |
| 247 | Thermos | 2:23.45 | 0 | 0 |
| 248 | Ashton_bro | 2:23.46 | 0 | 0 |
| 249 | EpicMatter | 2:23.49 | 0 | 0 |
| 249 | Spotfire | 2:23.49 | 0 | 0 |
| 251 | CeruleanAzura | 2:23.50 | 0 | 0 |
| 252 | 遠くの愛好家 | 2:23.56 | 0 | 0 |
| 253 | Nirom | 2:23.57 | 0 | 0 |
| 253 | Breezy™ | 2:23.57 | 0 | 0 |
| 255 | Ishmon TTV | 2:23.61 | 0 | 0 |
| 255 | ObsidianMiner13 | 2:23.61 | 0 | 0 |
| 257 | PowerMeep | 2:23.62 | 0 | 0 |
| 258 | Ejotapg | 2:23.63 | 0 | 0 |
| 258 | PlatinumAstra | 2:23.63 | 0 | 0 |
| 260 | Raxus | 2:23.65 | 0 | 0 |
| 261 | Zarifi | 2:23.66 | 0 | 0 |
| 261 | Hudbus | 2:23.66 | 0 | 0 |
| 261 | Boomer McGeezer | 2:23.66 | 0 | 0 |
| 264 | clu | 2:23.67 | 0 | 0 |
| 264 | Nickachew | 2:23.67 | 0 | 0 |
| 266 | KevKirby | 2:23.68 | 0 | 0 |
| 267 | KWP | 2:23.69 | 0 | 0 |
| 268 | SnackLover | 2:23.70 | 0 | 0 |
| 268 | dan7999 | 2:23.70 | 0 | 0 |
| 268 | Zetron | 2:23.70 | 0 | 0 |
| 271 | Myogi Night | 2:23.74 | 0 | 0 |
| 272 | Spearmint | 2:23.75 | 0 | 0 |
| 273 | NyaNekoEngine | 2:23.76 | 0 | 0 |
| 273 | supersmily5 | 2:23.76 | 0 | 0 |
| 273 | zombieassaultman | 2:23.76 | 0 | 0 |
| 273 | DieselFace | 2:23.76 | 0 | 0 |
| 277 | Verdor | 2:23.77 | 0 | 0 |
| 278 | ant | 2:23.78 | 0 | 0 |
| 278 | < blank > | 2:23.78 | 0 | 0 |
| 278 | Kypar | 2:23.78 | 0 | 0 |
| 281 | tortulaluna | 2:23.80 | 0 | 0 |
| 282 | Glas | 2:23.81 | 0 | 0 |
| 283 | Hirochi | 2:23.82 | 0 | 0 |
| 284 | Soundwave815 | 2:23.84 | 0 | 0 |
| 284 | QuasarSevilla | 2:23.84 | 0 | 0 |
| 286 | Drix | 2:23.85 | 0 | 0 |
| 287 | Seere | 2:23.87 | 0 | 0 |
| 288 | Pairoba | 2:23.90 | 0 | 0 |
| 288 | Gyodesis | 2:23.90 | 0 | 0 |
| 290 | gingerette95 | 2:23.91 | 0 | 0 |
| 291 | AnonSchlingel | 2:23.93 | 0 | 0 |
| 292 | CuddleStrike | 2:23.95 | 0 | 0 |
| 292 | KamikazeKitaze | 2:23.95 | 0 | 0 |
| 294 | Dewwer | 2:23.96 | 0 | 0 |
| 294 | Spacefarer | 2:23.96 | 0 | 0 |
| 294 | Player145 | 2:23.96 | 0 | 0 |
| 297 | LunarStarlight | 2:23.97 | 0 | 0 |
| 298 | But we're both girls! | 2:23.98 | 0 | 0 |
| 299 | Grav | 2:24.00 | 0 | 0 |
| 299 | Mivhs | 2:24.00 | 0 | 0 |
| 301 | Super_Shadow57 | 2:24.01 | 0 | 0 |
| 302 | UnFefeSauvage | 2:24.02 | 0 | 0 |
| 303 | ✪ Frok ✪ | 2:24.03 | 0 | 0 |
| 303 | rey20099 | 2:24.03 | 0 | 0 |
| 305 | toniqe53 | 2:24.04 | 0 | 0 |
| 306 | Ironside451 | 2:24.05 | 0 | 0 |
| 307 | NUKA | 2:24.06 | 0 | 0 |
| 308 | Bunnyboulder | 2:24.07 | 0 | 0 |
| 309 | Bezzernator | 2:24.09 | 0 | 0 |
| 310 | -zaz23- | 2:24.12 | 0 | 0 |
| 310 | itzAndre | 2:24.12 | 0 | 0 |
| 312 | MrHolmes | 2:24.13 | 0 | 0 |
| 313 | Cerberus DCXVI | 2:24.14 | 0 | 0 |
| 314 | ♿ | 2:24.16 | 0 | 0 |
| 314 | Kenaz | 2:24.16 | 0 | 0 |
| 316 | Andreizovisky | 2:24.22 | 0 | 0 |
| 317 | LachenJager | 2:24.23 | 0 | 0 |
| 318 | Tesselode | 2:24.25 | 0 | 0 |
| 319 | Azem_of_Earth | 2:24.26 | 0 | 0 |
| 319 | HJQLF | 2:24.26 | 0 | 0 |
| 321 | Gixxerblue | 2:24.29 | 0 | 0 |
| 322 | EonShark | 2:24.30 | 0 | 0 |
| 323 | LittleKittyArtemis | 2:24.32 | 0 | 0 |
| 323 | Zero_Antlax | 2:24.32 | 0 | 0 |
| 325 | CableBox64 | 2:24.33 | 0 | 0 |
| 326 | Eagl3 | 2:24.36 | 0 | 0 |
| 327 | yo | 2:24.37 | 0 | 0 |
| 327 | Donnermax2 | 2:24.37 | 0 | 0 |
| 327 | CoJo12 | 2:24.37 | 0 | 0 |
| 327 | Ktee | 2:24.37 | 0 | 0 |
| 331 | fischpferd | 2:24.39 | 0 | 0 |
| 331 | Тарковский! | 2:24.39 | 0 | 0 |
| 333 | LOLO FAK | 2:24.41 | 0 | 0 |
| 334 | Indecisive | 2:24.42 | 0 | 0 |
| 334 | Polygonalfish | 2:24.42 | 0 | 0 |
| 336 | Vestige | 2:24.43 | 0 | 0 |
| 337 | [REDACTED] | 2:24.47 | 0 | 0 |
| 337 | NicholasKB19 | 2:24.47 | 0 | 0 |
| 339 | L A I N | 2:24.48 | 0 | 0 |
| 339 | Hotride | 2:24.48 | 0 | 0 |
| 341 | Vyneci | 2:24.51 | 0 | 0 |
| 342 | Iron_Angmar | 2:24.56 | 0 | 0 |
| 342 | Felinaxo | 2:24.56 | 0 | 0 |
| 344 | Lliane | 2:24.58 | 0 | 0 |
| 345 | Krogoth | 2:24.59 | 0 | 0 |
| 346 | Zodiac | 2:24.60 | 0 | 0 |
| 347 | Rabbids Enjoyer | 2:24.61 | 0 | 0 |
| 348 | 111 | 2:24.62 | 0 | 0 |
| 349 | xanthousphoenix | 2:24.63 | 0 | 0 |
| 350 | boujore | 2:24.64 | 0 | 0 |
| 350 | Numberkool | 2:24.64 | 0 | 0 |
| 352 | Fleabag | 2:24.66 | 0 | 0 |
| 353 | Meda | 2:24.67 | 0 | 0 |
| 354 | LkProd | 2:24.68 | 0 | 0 |
| 354 | Hovex the Spider | 2:24.68 | 0 | 0 |
| 356 | BuzZoiD | 2:24.69 | 0 | 0 |
| 356 | Idle Asides | 2:24.69 | 0 | 0 |
| 358 | Treme | 2:24.73 | 0 | 0 |
| 359 | Recapes | 2:24.74 | 0 | 0 |
| 359 | Kurk Kurk | 2:24.74 | 0 | 0 |
| 361 | Frozen Dino | 2:24.75 | 0 | 0 |
| 362 | Interpunct | 2:24.77 | 0 | 0 |
| 363 | JohnCorby | 2:24.78 | 0 | 0 |
| 364 | ElHombre86 | 2:24.80 | 0 | 0 |
| 365 | Raiden925 | 2:24.82 | 0 | 0 |
| 365 | nowayy | 2:24.82 | 0 | 0 |
| 367 | DasGerippe | 2:24.84 | 0 | 0 |
| 368 | ThumpieBunnyEve | 2:24.87 | 0 | 0 |
| 368 | artifichell | 2:24.87 | 0 | 0 |
| 370 | K A L I U M | 2:24.89 | 0 | 0 |
| 371 | FallenWynter | 2:24.91 | 0 | 0 |
| 371 | MR Keos | 2:24.91 | 0 | 0 |
| 373 | Blexyde | 2:24.93 | 0 | 0 |
| 374 | Matheus Pereira | 2:25.00 | 0 | 0 |
| 375 | timawesomeness | 2:25.03 | 0 | 0 |
| 376 | Shaka | 2:25.07 | 0 | 0 |
| 377 | ✂👌☜✌☼✂ | 2:25.11 | 0 | 0 |
| 378 | EnderKill98 | 2:25.14 | 0 | 0 |
| 379 | The YamahaJoe_™ | 2:25.16 | 0 | 0 |
| 379 | Enzyme Machine | 2:25.16 | 0 | 0 |
| 381 | ForlornStag (controller) | 2:25.17 | 0 | 0 |
| 382 | Brionac | 2:25.27 | 0 | 0 |
| 383 | [RIOT]ThePlatinTiger | 2:25.29 | 0 | 0 |
| 384 | Cyxxus | 2:25.30 | 0 | 0 |
| 384 | C4tch | 2:25.30 | 0 | 0 |
| 386 | EndlessGaming | 2:25.31 | 0 | 0 |
| 387 | DPftw | 2:25.39 | 0 | 0 |
| 388 | Shady Inktail | 2:25.45 | 0 | 0 |
| 389 | Astel | 2:25.46 | 0 | 0 |
| 390 | Dig | 2:25.48 | 0 | 0 |
| 390 | Clippy | 2:25.48 | 0 | 0 |
| 392 | olinic | 2:25.49 | 0 | 0 |
| 392 | Warriot | 2:25.49 | 0 | 0 |
| 394 | Jam0344 | 2:25.57 | 0 | 0 |
| 395 | BEPISMAN.exe | 2:25.59 | 0 | 0 |
| 396 | SEVEN | 2:25.63 | 0 | 0 |
| 396 | Dyltra | 2:25.63 | 0 | 0 |
| 398 | SirWanksalot | 2:25.64 | 0 | 0 |
| 399 | 25 минут кайфа | 2:25.72 | 0 | 0 |
| 400 | Razgriez | 2:25.76 | 0 | 0 |
| 400 | StephanoLight | 2:25.76 | 0 | 0 |
| 402 | LemonIsland | 2:25.82 | 0 | 0 |
| 403 | The Prophet | 2:25.87 | 0 | 0 |
| 404 | Todd Bonzalez | 2:25.91 | 0 | 0 |
| 405 | Arikawa | 2:25.92 | 0 | 0 |
| 405 | Rose | 2:25.92 | 0 | 0 |
| 407 | replikaeyes | 2:26.01 | 0 | 0 |
| 408 | [PL]Hirome | 2:26.03 | 0 | 0 |
| 409 | MAT D.R.⎛⎝≥⏝⏝≤⎠⎞ | 2:26.12 | 0 | 0 |
| 409 | Indy1984 | 2:26.12 | 0 | 0 |
| 411 | Weird Pumpkin | 2:26.14 | 0 | 0 |
| 411 | Nuion | 2:26.14 | 0 | 0 |
| 413 | The Blue Milk Group | 2:26.15 | 0 | 0 |
| 414 | ExcoRage | 2:26.20 | 0 | 0 |
| 415 | Vampire | 2:26.46 | 0 | 0 |
| 416 | ShadowS56 | 2:26.52 | 0 | 0 |
| 417 | Karakanov | 2:26.56 | 0 | 0 |
| 418 | SparraNova | 2:26.59 | 0 | 0 |
| 419 | Silver~ | 2:26.61 | 0 | 0 |
| 420 | chaotic | 2:26.62 | 0 | 0 |
| 421 | Dimitri | 2:26.68 | 0 | 0 |
| 422 | Vencer | 2:26.69 | 0 | 0 |
| 422 | DamnedDeyvid | 2:26.69 | 0 | 0 |
| 424 | pztunleaded | 2:26.72 | 0 | 0 |
| 425 | MyurrDurr | 2:26.76 | 0 | 0 |
| 426 | FRX | 2:26.80 | 0 | 0 |
| 427 | sizifov | 2:26.84 | 0 | 0 |
| 428 | Earthnuker | 2:26.88 | 0 | 0 |
| 429 | The Biggest [REDACTED] Ogre | 2:26.90 | 0 | 0 |
| 430 | Mewasp | 2:26.93 | 0 | 0 |
| 431 | Benji | 2:26.95 | 0 | 0 |
| 432 | Nitrium | 2:27.04 | 0 | 0 |
| 433 | Sambammers | 2:27.15 | 0 | 0 |
| 434 | maple | 2:27.19 | 0 | 0 |
| 435 | Nova | 2:27.32 | 0 | 0 |
| 436 | dreifachpunkt. | 2:27.39 | 0 | 0 |
| 437 | Krazy8s | 2:27.49 | 0 | 0 |
| 438 | MindlessMinion | 2:27.51 | 0 | 0 |
| 439 | CampingCarl | 2:27.52 | 0 | 0 |
| 440 | spooky ghost | 2:27.64 | 0 | 0 |
| 441 | cerberus❤ | 2:27.69 | 0 | 0 |
| 442 | BSC205 | 2:27.76 | 0 | 0 |
| 443 | Asinay | 2:27.82 | 0 | 0 |
| 444 | joltz | 2:27.84 | 0 | 0 |
| 445 | BrandonK-TN | 2:27.89 | 0 | 0 |
| 446 | SunlessSoph | 2:27.93 | 0 | 0 |
| 447 | Megacrafter127 | 2:28.00 | 0 | 0 |
| 448 | Nick | 2:28.04 | 0 | 0 |
| 449 | PuppySky | 2:28.10 | 0 | 0 |
| 450 | tvgold | 2:28.13 | 0 | 0 |
| 451 | TP-N.co PC-118 B-10001110101 | 2:28.27 | 0 | 0 |
| 452 | Sensokaku | 2:28.44 | 0 | 0 |
| 453 | Lysander | 2:28.45 | 0 | 0 |
| 453 | ash | 2:28.45 | 0 | 0 |
| 455 | blue | 2:28.46 | 0 | 0 |
| 456 | Faygo D. Bullchit | 2:28.55 | 0 | 0 |
| 457 | MIAT | 2:28.61 | 0 | 0 |
| 458 | Matanuska | 2:28.65 | 0 | 0 |
| 459 | Blue-Pentagram | 2:28.82 | 0 | 0 |
| 459 | Mr. Chubbz | 2:28.82 | 0 | 0 |
| 461 | Wourder | 2:28.84 | 0 | 0 |
| 462 | cocob4 | 2:28.88 | 0 | 0 |
| 463 | Storm the Snep | 2:28.91 | 0 | 0 |
| 464 | Jester Thomas | 2:29.02 | 0 | 0 |
| 464 | Detective Man | 2:29.02 | 0 | 0 |
| 466 | Corplace | 2:29.11 | 0 | 0 |
| 467 | Dracheron | 2:29.23 | 0 | 0 |
| 468 | That One Panda | 2:29.26 | 0 | 0 |
| 469 | HeavenTrain | 2:29.33 | 0 | 0 |
| 470 | Ⓝ | 2:29.35 | 0 | 0 |
| 471 | . | 2:29.39 | 0 | 0 |
| 472 | NoBody | 2:29.48 | 0 | 0 |
| 473 | Agent Starlight | 2:29.52 | 0 | 0 |
| 474 | Frayboy15 | 2:29.53 | 0 | 0 |
| 475 | Cyberpunk Ice Noodle | 2:29.60 | 0 | 0 |
| 476 | Host | 2:29.61 | 0 | 0 |
| 477 | Blacky Stranger | 2:29.63 | 0 | 0 |
| 477 | vl4duu | 2:29.63 | 0 | 0 |
| 479 | boe jiden (final form) | 2:29.65 | 0 | 0 |
| 480 | cyace | 2:29.66 | 0 | 0 |
| 481 | Beeeeeeedi | 2:29.68 | 0 | 0 |
| 482 | Jercasem | 2:29.71 | 0 | 0 |
| 483 | Opliz jejetriton | 2:29.72 | 0 | 0 |
| 484 | Unlight369 | 2:29.76 | 0 | 0 |
| 485 | Jappen | 2:29.78 | 0 | 0 |
| 486 | samson13 | 2:29.81 | 0 | 0 |
| 487 | Umbrasbane | 2:29.82 | 0 | 0 |
| 488 | Stracker | 2:29.91 | 0 | 0 |
| 489 | Valankor | 2:29.94 | 0 | 0 |
| 490 | Booler | 2:29.96 | 0 | 0 |
| 491 | WorkingChickenMH | 2:30.00 | 0 | 0 |
| 492 | 문경왕개미 | 2:30.02 | 0 | 0 |
| 493 | Roadie | 2:30.15 | 0 | 0 |
| 494 | _BrightDarkness_ | 2:30.18 | 0 | 0 |
| 495 | Kowsky | 2:30.19 | 0 | 0 |
| 496 | Grabuge | 2:30.27 | 0 | 0 |
| 497 | [deleted] | 2:30.35 | 0 | 0 |
| 497 | NyctoGT | 2:30.35 | 0 | 0 |
| 499 | Vandalite | 2:30.37 | 0 | 0 |
| 500 | S.Kappelmann | 2:30.42 | 0 | 0 |
| 501 | Norz-Öril'Kern | 2:30.57 | 0 | 0 |
| 502 | inderinfi | 2:30.58 | 0 | 0 |
| 503 | Corecii | 2:30.61 | 0 | 0 |
| 504 | Lémohn | 2:30.62 | 0 | 0 |
| 505 | NK - Néko | 2:30.63 | 0 | 0 |
| 505 | Scarlet | 2:30.63 | 0 | 0 |
| 507 | ~Morgsch~ | 2:30.77 | 0 | 0 |
| 508 | Janitor | 2:30.95 | 0 | 0 |
| 509 | delfiler | 2:30.97 | 0 | 0 |
| 509 | MOCOCHINCHOL | 2:30.97 | 0 | 0 |
| 511 | Timbotenbo | 2:31.08 | 0 | 0 |
| 512 | rustihkov | 2:31.18 | 0 | 0 |
| 512 | Neko14789 | 2:31.18 | 0 | 0 |
| 514 | Beskar | 2:31.24 | 0 | 0 |
| 514 | Shroom | 2:31.24 | 0 | 0 |
| 516 | JxAce | 2:31.26 | 0 | 0 |
| 517 | Shadiest | 2:31.55 | 0 | 0 |
| 518 | CheeseWithHoles | 2:31.56 | 0 | 0 |
| 519 | DecentM | 2:31.65 | 0 | 0 |
| 520 | Leon | 2:31.70 | 0 | 0 |
| 520 | russ117 | 2:31.70 | 0 | 0 |
| 522 | Shyylock | 2:31.74 | 0 | 0 |
| 523 | RobloxUwU | 2:31.75 | 0 | 0 |
| 524 | Rusty Shackleford | 2:31.77 | 0 | 0 |
| 525 | Azy | 2:31.83 | 0 | 0 |
| 526 | Krash | 2:31.84 | 0 | 0 |
| 527 | Bistdocs | 2:31.89 | 0 | 0 |
| 528 | ahtnos | 2:32.07 | 0 | 0 |
| 529 | Foul Tarnished | 2:32.09 | 0 | 0 |
| 530 | BluntButters | 2:32.27 | 0 | 0 |
| 530 | [d]raex | 2:32.27 | 0 | 0 |
| 532 | TitanSpider70 | 2:32.32 | 0 | 0 |
| 533 | RagingPoet | 2:32.38 | 0 | 0 |
| 533 | Jezo | 2:32.38 | 0 | 0 |
| 535 | Krull | 2:32.49 | 0 | 0 |
| 536 | Ashraz | 2:32.59 | 0 | 0 |
| 537 | TajPilon | 2:32.60 | 0 | 0 |
| 538 | Ae1oURed | 2:32.61 | 0 | 0 |
| 539 | Vorpal Soul | 2:32.73 | 0 | 0 |
| 540 | Big Chungus2010 | 2:32.77 | 0 | 0 |
| 541 | Bijan | 2:32.86 | 0 | 0 |
| 542 | Toastmaster | 2:32.91 | 0 | 0 |
| 543 | SIGSTACKFAULT | 2:32.93 | 0 | 0 |
| 544 | Jeebus | 2:32.95 | 0 | 0 |
| 545 | Embylles | 2:33.11 | 0 | 0 |
| 546 | Lazarus | 2:33.12 | 0 | 0 |
| 547 | JokersBullet12 | 2:33.15 | 0 | 0 |
| 548 | Darman | 2:33.17 | 0 | 0 |
| 549 | Readek | 2:33.20 | 0 | 0 |
| 550 | Lin | 2:33.29 | 0 | 0 |
| 551 | RL | 2:33.30 | 0 | 0 |
| 552 | SHAaD_Sicod | 2:33.35 | 0 | 0 |
| 553 | Un-Possible | 2:33.41 | 0 | 0 |
| 554 | SMUG KITTY | 2:33.58 | 0 | 0 |
| 555 | ErzoopaRTR | 2:33.60 | 0 | 0 |
| 556 | Magister Ludi | 2:33.69 | 0 | 0 |
| 556 | ~Astral Skies~ | 2:33.69 | 0 | 0 |
| 558 | Frederik Thundercunt | 2:33.77 | 0 | 0 |
| 559 | Slacks | 2:33.86 | 0 | 0 |
| 560 | drater yag | 2:33.88 | 0 | 0 |
| 561 | James "Papa Het" Hetfield | 2:33.90 | 0 | 0 |
| 562 | Bubwubster | 2:33.91 | 0 | 0 |
| 563 | Tenth | 2:33.96 | 0 | 0 |
| 564 | Хз Ястреб | 2:33.99 | 0 | 0 |
| 565 | lungfish | 2:34.03 | 0 | 0 |
| 566 | Shivoo | 2:34.13 | 0 | 0 |
| 567 | Toby | 2:34.20 | 0 | 0 |
| 567 | Gemini | 2:34.20 | 0 | 0 |
| 569 | PowaRanja | 2:34.26 | 0 | 0 |
| 570 | timanza | 2:34.30 | 0 | 0 |
| 571 | BulletRain23 | 2:34.34 | 0 | 0 |
| 572 | imxRaven | 2:34.35 | 0 | 0 |
| 573 | Brandino | 2:34.39 | 0 | 0 |
| 574 | Spooky Jesse | 2:34.40 | 0 | 0 |
| 574 | Leviticus Blue | 2:34.40 | 0 | 0 |
| 576 | beaconblock416 | 2:34.47 | 0 | 0 |
| 577 | [iNk] Primus | 2:34.52 | 0 | 0 |
| 578 | nightclubpositive | 2:34.57 | 0 | 0 |
| 579 | Ayre | 2:34.62 | 0 | 0 |
| 580 | Sartha | 2:34.68 | 0 | 0 |
| 581 | EmeraldSlash | 2:34.78 | 0 | 0 |
| 581 | Sunzara | 2:34.78 | 0 | 0 |
| 583 | The Senate | 2:34.99 | 0 | 0 |
| 584 | ℛ𝓊𝓃𝑒 | 2:35.02 | 0 | 0 |
| 585 | Xelephis | 2:35.16 | 0 | 0 |
| 586 | Gomorrha | 2:35.33 | 0 | 0 |
| 587 | Mossy Shush | 2:35.49 | 0 | 0 |
| 588 | Sorez | 2:35.50 | 0 | 0 |
| 589 | Eifha | 2:35.51 | 0 | 0 |
| 589 | Cheesus Crust (mono) | 2:35.51 | 0 | 0 |
| 591 | Dorphan | 2:35.52 | 0 | 0 |
| 592 | 猫かわいい | 2:35.69 | 0 | 0 |
| 593 | Stracciatella | 2:35.73 | 0 | 0 |
| 594 | Cieon | 2:35.75 | 0 | 0 |
| 595 | Joan6694 | 2:35.86 | 0 | 0 |
| 596 | 2Infinity&Evil | 2:35.89 | 0 | 0 |
| 597 | KaBeu | 2:35.99 | 0 | 0 |
| 598 | Quantum Glitch | 2:36.06 | 0 | 0 |
| 599 | H202 | 2:36.15 | 0 | 0 |
| 600 | gustserve | 2:36.26 | 0 | 0 |
| 601 | Dragonsbane1270 | 2:36.30 | 0 | 0 |
| 602 | Hightree | 2:36.42 | 0 | 0 |
| 602 | Majsek | 2:36.42 | 0 | 0 |
| 604 | Mambo | 2:36.51 | 0 | 0 |
| 605 | Wox | 2:36.53 | 0 | 0 |
| 605 | weirdoninjataco | 2:36.53 | 0 | 0 |
| 607 | Apocalyptic Bunny | 2:36.54 | 0 | 0 |
| 608 | [NR] Miyu012 | 2:36.56 | 0 | 0 |
| 609 | ShadowRipperhr | 2:36.62 | 0 | 0 |
| 610 | YoloMoth | 2:36.75 | 0 | 0 |
| 611 | Animax | 2:36.82 | 0 | 0 |
| 611 | endergecko1218 | 2:36.82 | 0 | 0 |
| 613 | arkhayem | 2:36.87 | 0 | 0 |
| 614 | Frizzybman11 | 2:36.89 | 0 | 0 |
| 615 | Mr. Grizz | 2:36.93 | 0 | 0 |
| 616 | Winters | 2:37.19 | 0 | 0 |
| 617 | Hanimani2 | 2:37.26 | 0 | 0 |
| 618 | Vivid Empress | 2:37.31 | 0 | 0 |
| 618 | Static the Pet | 2:37.31 | 0 | 0 |
| 620 | Waymint | 2:37.35 | 0 | 0 |
| 621 | O' The Iron E | 2:37.38 | 0 | 0 |
| 622 | GamerJamie1986 | 2:37.40 | 0 | 0 |
| 623 | Wolf | 2:37.53 | 0 | 0 |
| 624 | Cheapo | 2:37.65 | 0 | 0 |
| 625 | McFolt | 2:37.72 | 0 | 0 |
| 626 | Well Shit | 2:37.75 | 0 | 0 |
| 627 | TriStormed | 2:37.76 | 0 | 0 |
| 628 | dame.najdov | 2:37.84 | 0 | 0 |
| 629 | Da Doom Man | 2:37.87 | 0 | 0 |
| 629 | Blushy Wushy | 2:37.87 | 0 | 0 |
| 631 | Zaster | 2:38.01 | 0 | 0 |
| 632 | Prof. Pinwheel | 2:38.09 | 0 | 0 |
| 633 | Dubi | 2:38.13 | 0 | 0 |
| 634 | Niko | 2:38.20 | 0 | 0 |
| 635 | Xiotis | 2:38.28 | 0 | 0 |
| 636 | timberhog | 2:38.35 | 0 | 0 |
| 637 | Greeny^ | 2:38.54 | 0 | 0 |
| 638 | Gidan | 2:38.64 | 0 | 0 |
| 639 | Fubini | 2:38.66 | 0 | 0 |
| 640 | Ellioty | 2:38.72 | 0 | 0 |
| 641 | SuperCrunch | 2:38.73 | 0 | 0 |
| 642 | Seshiruseth | 2:38.80 | 0 | 0 |
| 643 | Irri | 2:38.84 | 0 | 0 |
| 644 | BlackOnyx | 2:38.90 | 0 | 0 |
| 645 | Mud | 2:38.97 | 0 | 0 |
| 645 | Girahimu | 2:38.97 | 0 | 0 |
| 647 | Smile.jpg | 2:39.08 | 0 | 0 |
| 648 | Naoroji | 2:39.17 | 0 | 0 |
| 649 | TheGamingAnt55 | 2:39.22 | 0 | 0 |
| 650 | Fedge | 2:39.29 | 0 | 0 |
| 650 | Rewnie | 2:39.29 | 0 | 0 |
| 652 | Mr. Bird | 2:39.32 | 0 | 0 |
| 653 | pox | 2:39.33 | 0 | 0 |
| 654 | Roggee | 2:39.35 | 0 | 0 |
| 655 | Dekkosun™ | 2:39.40 | 0 | 0 |
| 656 | Sxolian | 2:39.41 | 0 | 0 |
| 657 | Mr Chip | 2:39.44 | 0 | 0 |
| 658 | Rombommind | 2:39.58 | 0 | 0 |
| 659 | FabioTheTurtle | 2:39.60 | 0 | 0 |
| 659 | FyreWall | 2:39.60 | 0 | 0 |
| 659 | Fushiggy | 2:39.60 | 0 | 0 |
| 662 | HalfPathetic | 2:39.63 | 0 | 0 |
| 663 | The Reaper GG | 2:39.69 | 0 | 0 |
| 664 | 321longshot | 2:39.83 | 0 | 0 |
| 665 | Sugoi-desu (⊙‿⊙✿) | 2:39.94 | 0 | 0 |
| 666 | Thekingpsyduck | 2:40.08 | 0 | 0 |
| 667 | .present; | 2:40.23 | 0 | 0 |
| 668 | Riccardoman | 2:40.24 | 0 | 0 |
| 669 | The Mighty Condor | 2:40.25 | 0 | 0 |
| 670 | Raynland McNuggets | 2:40.43 | 0 | 0 |
| 671 | Nexhin | 2:40.46 | 0 | 0 |
| 672 | rip in pieces | 2:40.64 | 0 | 0 |
| 673 | Bulka | 2:40.80 | 0 | 0 |
| 674 | Pryn | 2:40.89 | 0 | 0 |
| 675 | PurpleSuede | 2:40.92 | 0 | 0 |
| 676 | Sleve McDichael | 2:40.95 | 0 | 0 |
| 677 | [deleted] | 2:40.98 | 0 | 0 |
| 678 | B-VOL | 2:41.03 | 0 | 0 |
| 678 | cringey | 2:41.03 | 0 | 0 |
| 680 | GekoKid | 2:41.06 | 0 | 0 |
| 681 | Conbron ^-^ | 2:41.09 | 0 | 0 |
| 682 | Чаечек ☂ | 2:41.15 | 0 | 0 |
| 683 | Ame | 2:41.16 | 0 | 0 |
| 684 | FRΛCTURΞD SOUL | 2:41.21 | 0 | 0 |
| 685 | Thunderskull | 2:41.25 | 0 | 0 |
| 686 | crozak | 2:41.28 | 0 | 0 |
| 687 | Kashuzu | 2:41.39 | 0 | 0 |
| 687 | FlatoutDude | 2:41.39 | 0 | 0 |
| 689 | IanRosk | 2:41.45 | 0 | 0 |
| 690 | galactic depression | 2:41.48 | 0 | 0 |
| 691 | Jacsn | 2:41.54 | 0 | 0 |
| 692 | Alrunes | 2:41.65 | 0 | 0 |
| 693 | Achi | 2:41.75 | 0 | 0 |
| 694 | Federation Cosmic-Bolt | 2:41.79 | 0 | 0 |
| 695 | Dubu | 2:41.89 | 0 | 0 |
| 696 | gamer | 2:41.90 | 0 | 0 |
| 697 | Jinzø | 2:41.91 | 0 | 0 |
| 698 | HunterPlayz | 2:41.93 | 0 | 0 |
| 699 | CygnusAutomata | 2:41.96 | 0 | 0 |
| 700 | TheGreenMarioBrother | 2:41.98 | 0 | 0 |
| 701 | Skrigar | 2:42.08 | 0 | 0 |
| 702 | PayPalMeFuzzby | 2:42.25 | 0 | 0 |
| 703 | Chase Me | 2:42.28 | 0 | 0 |
| 704 | Sniggles | 2:42.29 | 0 | 0 |
| 705 | Pointed Mammal29 | 2:42.38 | 0 | 0 |
| 706 | edc | 2:42.40 | 0 | 0 |
| 707 | Final | 2:42.47 | 0 | 0 |
| 708 | Caradog | 2:42.53 | 0 | 0 |
| 709 | Fuffmydog | 2:42.65 | 0 | 0 |
| 710 | Techj | 2:42.66 | 0 | 0 |
| 711 | Stellarynn | 2:42.72 | 0 | 0 |
| 712 | PleaseNoMore | 2:42.85 | 0 | 0 |
| 713 | NK Nukes | 2:42.87 | 0 | 0 |
| 714 | Rhetorical Question | 2:42.88 | 0 | 0 |
| 715 | Gragzone | 2:42.90 | 0 | 0 |
| 716 | BlacKat | 2:43.21 | 0 | 0 |
| 717 | Sunn | 2:43.24 | 0 | 0 |
| 718 | Old Bastard | 2:43.27 | 0 | 0 |
| 719 | Ultor | 2:43.42 | 0 | 0 |
| 719 | IzPaladin | 2:43.42 | 0 | 0 |
| 721 | A Confused Bald Man | 2:43.45 | 0 | 0 |
| 721 | Yaharon | 2:43.45 | 0 | 0 |
| 723 | Enso | 2:43.50 | 0 | 0 |
| 724 | troysmith14 | 2:43.54 | 0 | 0 |
| 725 | DriveOffTheCliff | 2:43.75 | 0 | 0 |
| 726 | Wildclaw | 2:43.76 | 0 | 0 |
| 726 | SpicySpaceSnake | 2:43.76 | 0 | 0 |
| 728 | Xenobyte | 2:43.91 | 0 | 0 |
| 729 | NaterrPinata | 2:44.00 | 0 | 0 |
| 730 | BerAlto | 2:44.08 | 0 | 0 |
| 731 | Seekr | 2:44.27 | 0 | 0 |
| 732 | Rip | 2:44.33 | 0 | 0 |
| 733 | Crubo | 2:44.46 | 0 | 0 |
| 734 | UnlimitedDucks | 2:44.53 | 0 | 0 |
| 735 | Rybot | 2:44.54 | 0 | 0 |
| 736 | Arca | 2:44.56 | 0 | 0 |
| 737 | FunRizZ | 2:44.62 | 0 | 0 |
| 738 | kaisavi | 2:44.65 | 0 | 0 |
| 739 | Nyra | 2:44.66 | 0 | 0 |
| 740 | Carrott | 2:44.86 | 0 | 0 |
| 741 | Lutermama | 2:44.91 | 0 | 0 |
| 741 | Greenfire DX | 2:44.91 | 0 | 0 |
| 743 | Keiyo | 2:44.92 | 0 | 0 |
| 744 | Todd Baxter | 2:44.96 | 0 | 0 |
| 745 | Starhorder | 2:44.97 | 0 | 0 |
| 746 | adobesmurf | 2:45.02 | 0 | 0 |
| 747 | EnsignChekov | 2:45.08 | 0 | 0 |
| 748 | Holo | 2:45.10 | 0 | 0 |
| 749 | Stripes | 2:45.12 | 0 | 0 |
| 750 | Twinbee | 2:45.16 | 0 | 0 |
| 751 | Sibsen | 2:45.19 | 0 | 0 |
| 752 | Beets by Farmer Dre | 2:45.32 | 0 | 0 |
| 753 | FreeFull | 2:45.36 | 0 | 0 |
| 754 | Cathy | 2:45.47 | 0 | 0 |
| 755 | ham sandwich gaming | 2:45.50 | 0 | 0 |
| 756 | potionblue | 2:45.52 | 0 | 0 |
| 756 | Preston | 2:45.52 | 0 | 0 |
| 756 | Traetors | 2:45.52 | 0 | 0 |
| 759 | Valen | 2:45.56 | 0 | 0 |
| 760 | Its Ge | 2:45.67 | 0 | 0 |
| 761 | Sayukki | 2:45.71 | 0 | 0 |
| 762 | GANBLADD | 2:45.72 | 0 | 0 |
| 763 | Onyon | 2:45.79 | 0 | 0 |
| 764 | markschuurman1990 | 2:45.80 | 0 | 0 |
| 765 | Sgt_Snowcone | 2:45.84 | 0 | 0 |
| 766 | Mendreud | 2:45.95 | 0 | 0 |
| 767 | Jukey J | 2:46.00 | 0 | 0 |
| 768 | a_word | 2:46.09 | 0 | 0 |
| 769 | GTNeon | 2:46.15 | 0 | 0 |
| 770 | scubascubascubascuba | 2:46.32 | 0 | 0 |
| 771 | Cmacle | 2:46.47 | 0 | 0 |
| 772 | Chated | 2:46.50 | 0 | 0 |
| 773 | The 2000 Minnesota Vikings | 2:46.51 | 0 | 0 |
| 774 | Zeldy | 2:46.52 | 0 | 0 |
| 775 | Mataharix | 2:46.59 | 0 | 0 |
| 776 | Franny | 2:46.62 | 0 | 0 |
| 777 | Artifact | 2:46.63 | 0 | 0 |
| 777 | - Flubbermister - | 2:46.63 | 0 | 0 |
| 779 | sour | 2:46.68 | 0 | 0 |
| 780 | TantasStarke | 2:46.73 | 0 | 0 |
| 781 | SirEldricht | 2:46.78 | 0 | 0 |
| 782 | Herkamer | 2:46.97 | 0 | 0 |
| 782 | Caffeine Cat | 2:46.97 | 0 | 0 |
| 784 | Go Fish | 2:47.01 | 0 | 0 |
| 785 | SunsetBAE | 2:47.09 | 0 | 0 |
| 786 | DVRK PRISM | 2:47.21 | 0 | 0 |
| 787 | Lebigboiii | 2:47.28 | 0 | 0 |
| 788 | Sora-Play | 2:47.30 | 0 | 0 |
| 789 | Tomacawk | 2:47.31 | 0 | 0 |
| 790 | e⁻ | 2:47.32 | 0 | 0 |
| 791 | D0HERRITT | 2:47.33 | 0 | 0 |
| 792 | Jerico Venado | 2:47.35 | 0 | 0 |
| 793 | RunawayJesus | 2:47.41 | 0 | 0 |
| 794 | BrokenUrsa | 2:47.46 | 0 | 0 |
| 795 | marius_redandblue | 2:47.53 | 0 | 0 |
| 796 | Helpme2000 | 2:47.57 | 0 | 0 |
| 796 | SauronGamer | 2:47.57 | 0 | 0 |
| 798 | DF4 | 2:47.71 | 0 | 0 |
| 799 | Bronzeclaw | 2:48.16 | 0 | 0 |
| 800 | Лолисичка | 2:48.21 | 0 | 0 |
| 801 | gfreezz | 2:48.26 | 0 | 0 |
| 802 | ✪ xofafoseht | 2:48.31 | 0 | 0 |
| 803 | Dango | 2:48.37 | 0 | 0 |
| 804 | Keint | 2:48.38 | 0 | 0 |
| 805 | OneCent_HD | 2:48.53 | 0 | 0 |
| 806 | Aureliayk | 2:48.64 | 0 | 0 |
| 807 | DvN | 2:48.68 | 0 | 0 |
| 807 | BesRezen | 2:48.68 | 0 | 0 |
| 807 | CouchyMuffin | 2:48.68 | 0 | 0 |
| 810 | Yuna 🌸 | 2:48.79 | 0 | 0 |
| 811 | Red Skies | 2:48.92 | 0 | 0 |
| 812 | Echo_81 | 2:48.97 | 0 | 0 |
| 813 | ㄒㄖ卂丂ㄒ丨乙Ҝㄖㄖㄥ | 2:49.03 | 0 | 0 |
| 814 | Puma D. Ace | 2:49.10 | 0 | 0 |
| 815 | Mystic Fool | 2:49.16 | 0 | 0 |
| 816 | Iris | 2:49.26 | 0 | 0 |
| 817 | mag | 2:49.29 | 0 | 0 |
| 818 | adderall smoker | 2:49.30 | 0 | 0 |
| 819 | Kine | 2:49.57 | 0 | 0 |
| 820 | nightsurfer | 2:49.60 | 0 | 0 |
| 821 | DemoKnight Or Busty | 2:49.71 | 0 | 0 |
| 822 | Eskora | 2:49.72 | 0 | 0 |
| 823 | creax | 2:49.86 | 0 | 0 |
| 824 | Austint30 | 2:49.88 | 0 | 0 |
| 825 | Norminal | 2:49.89 | 0 | 0 |
| 826 | VAL | Giogio | 2:49.95 | 0 | 0 |
| 827 | The Male Gamer | 2:50.01 | 0 | 0 |
| 828 | Mr Plen | 2:50.12 | 0 | 0 |
| 829 | TristanZet | 2:50.15 | 0 | 0 |
| 830 | Nico Aigle | 2:50.26 | 0 | 0 |
| 831 | menkaru | 2:50.29 | 0 | 0 |
| 832 | BumbleFunkMcGee | 2:50.32 | 0 | 0 |
| 833 | A | 2:50.36 | 0 | 0 |
| 834 | phfphefph | 2:50.44 | 0 | 0 |
| 835 | Loving Wolf | 2:50.54 | 0 | 0 |
| 836 | btyrellb125 | 2:50.62 | 0 | 0 |
| 837 | Darth Sand | 2:50.84 | 0 | 0 |
| 838 | Crysest | 2:50.86 | 0 | 0 |
| 839 | LoopMix | 2:50.87 | 0 | 0 |
| 840 | NOVA | 2:50.95 | 0 | 0 |
| 841 | Zimmerman | 2:51.08 | 0 | 0 |
| 842 | Warpshroud | 2:51.21 | 0 | 0 |
| 843 | Sharkhon | 2:51.39 | 0 | 0 |
| 844 | Vitamin N | 2:51.40 | 0 | 0 |
| 845 | TheBoredguyyy | 2:51.49 | 0 | 0 |
| 846 | Zegorrie | 2:51.72 | 0 | 0 |
| 847 | sendthefish | 2:51.80 | 0 | 0 |
| 848 | leo | 2:51.81 | 0 | 0 |
| 849 | Dubblr | 2:51.91 | 0 | 0 |
| 850 | TNTGameplay | 2:52.21 | 0 | 0 |
| 851 | Limola | 2:52.31 | 0 | 0 |
| 852 | Crognak, All-Father | 2:52.51 | 0 | 0 |
| 853 | AstroBold | 2:52.59 | 0 | 0 |
| 854 | MK | 2:52.61 | 0 | 0 |
| 855 | SquirrelSama | 2:52.80 | 0 | 0 |
| 856 | MintyFreshFries | 2:52.82 | 0 | 0 |
| 856 | Haferkuchen | 2:52.82 | 0 | 0 |
| 858 | onixboi | 2:52.87 | 0 | 0 |
| 859 | Echor | 2:53.01 | 0 | 0 |
| 860 | Ara | 2:53.11 | 0 | 0 |
| 861 | Galaxic | 2:53.15 | 0 | 0 |
| 862 | Hinfrem | 2:53.23 | 0 | 0 |
| 863 | Velimor | 2:53.25 | 0 | 0 |
| 864 | Voxr | 2:53.42 | 0 | 0 |
| 865 | PatTheHyruler | 2:53.55 | 0 | 0 |
| 866 | BURNSCOUT | 2:53.81 | 0 | 0 |
| 867 | ZERO | 2:53.82 | 0 | 0 |
| 868 | [deleted] | 2:53.92 | 0 | 0 |
| 869 | Masta Platypus | 2:54.04 | 0 | 0 |
| 869 | Moonie | 2:54.04 | 0 | 0 |
| 871 | Günther Fox | 2:54.10 | 0 | 0 |
| 872 | LP_NinLory | 2:54.20 | 0 | 0 |
| 873 | ReadWriteError | 2:54.25 | 0 | 0 |
| 874 | P0LL0 | 2:54.30 | 0 | 0 |
| 875 | dizndaz | 2:54.40 | 0 | 0 |
| 876 | Hornsking | 2:54.52 | 0 | 0 |
| 876 | Lightshift | 2:54.52 | 0 | 0 |
| 878 | Lord_Of_Weasels | 2:54.58 | 0 | 0 |
| 878 | Wolfy Neah | 2:54.58 | 0 | 0 |
| 878 | JeffTheBruh | 2:54.58 | 0 | 0 |
| 881 | bmrc97 | 2:54.62 | 0 | 0 |
| 882 | AlpacaMan | 2:54.70 | 0 | 0 |
| 883 | Kincaid | 2:54.72 | 0 | 0 |
| 884 | C412105 | 2:54.74 | 0 | 0 |
| 885 | XxSupremeCountoFedoraTipper420xX | 2:54.84 | 0 | 0 |
| 886 | M J A Y | 2:54.85 | 0 | 0 |
| 887 | heavylink2301 | 2:54.88 | 0 | 0 |
| 887 | TG300 | 2:54.88 | 0 | 0 |
| 889 | MaruPig | 2:54.92 | 0 | 0 |
| 890 | Darkness | 2:54.95 | 0 | 0 |
| 891 | pandu | 2:54.96 | 0 | 0 |
| 892 | ShotgunReptile | 2:55.01 | 0 | 0 |
| 893 | Magnowser | 2:55.18 | 0 | 0 |
| 894 | racercowboy | 2:55.24 | 0 | 0 |
| 895 | Firestix | 2:55.27 | 0 | 0 |
| 896 | 2ddixon | 2:55.43 | 0 | 0 |
| 897 | Xynper | 2:55.45 | 0 | 0 |
| 898 | EMPTY | 2:55.53 | 0 | 0 |
| 899 | ΣlectrσWingPixy | 2:55.62 | 0 | 0 |
| 900 | Eddie980® | 2:55.65 | 0 | 0 |
| 901 | Tuli | 2:55.67 | 0 | 0 |
| 902 | Buttlet | 2:55.68 | 0 | 0 |
| 903 | Mirianne | 2:55.74 | 0 | 0 |
| 904 | Triumphant Trump (Noties Muted) | 2:55.92 | 0 | 0 |
| 905 | Art Vandelay | 2:56.05 | 0 | 0 |
| 906 | Yuki Arika Muze | 2:56.08 | 0 | 0 |
| 907 | THE FINAL LOSER | 2:56.18 | 0 | 0 |
| 908 | OnyxLock | 2:56.43 | 0 | 0 |
| 909 | Roboraser | 2:56.63 | 0 | 0 |
| 910 | KaMozo25 | 2:56.71 | 0 | 0 |
| 911 | KRV0 | 2:56.90 | 0 | 0 |
| 912 | Helios | 2:56.99 | 0 | 0 |
| 913 | EC0re | 2:57.05 | 0 | 0 |
| 914 | GuzzleBones | 2:57.28 | 0 | 0 |
| 915 | Doon | 2:57.56 | 0 | 0 |
| 916 | youtube vembress | 2:57.86 | 0 | 0 |
| 917 | Dany | 2:57.88 | 0 | 0 |
| 918 | 3nvy | 2:58.06 | 0 | 0 |
| 919 | Smish | 2:58.10 | 0 | 0 |
| 920 | Kodikuu | 2:58.13 | 0 | 0 |
| 921 | Ams012101 | 2:58.21 | 0 | 0 |
| 922 | moth | 2:58.32 | 0 | 0 |
| 923 | bunnstie | 2:58.34 | 0 | 0 |
| 924 | Sandi_Witch | 2:58.36 | 0 | 0 |
| 925 | Kelmohr | 2:58.39 | 0 | 0 |
| 926 | Aespher | 2:58.40 | 0 | 0 |
| 926 | Alexkurts | 2:58.40 | 0 | 0 |
| 928 | TheDukeOfTaco | 2:58.43 | 0 | 0 |
| 929 | Binko Bonko | 2:58.58 | 0 | 0 |
| 930 | Andy95 | 2:58.63 | 0 | 0 |
| 931 | Bananbulance | 2:58.64 | 0 | 0 |
| 932 | raviolifun | 2:58.73 | 0 | 0 |
| 933 | Tigger | 2:58.75 | 0 | 0 |
| 934 | Slip | 2:58.76 | 0 | 0 |
| 935 | SirDeyong | 2:58.80 | 0 | 0 |
| 936 | Enthrall Decree | 2:59.13 | 0 | 0 |
| 937 | dragnor | 2:59.17 | 0 | 0 |
| 938 | Missippi_Hippie | 2:59.30 | 0 | 0 |
| 939 | CS | 2:59.32 | 0 | 0 |
| 940 | Leo Cantus | 2:59.44 | 0 | 0 |
| 941 | BattleCoder | 2:59.50 | 0 | 0 |
| 942 | SC000TER | 2:59.60 | 0 | 0 |
| 943 | OopsieBeans | 2:59.69 | 0 | 0 |
| 944 | Ostpojken | 2:59.94 | 0 | 0 |
| 945 | A5trocat | 2:59.95 | 0 | 0 |
| 945 | Bobeye | 2:59.95 | 0 | 0 |
| 947 | Keflon | 2:59.98 | 0 | 0 |
| 948 | Xaiux | 3:00.10 | 0 | 0 |
| 949 | Oldman | 3:00.24 | 0 | 0 |
| 950 | Brendonian | 3:00.28 | 0 | 0 |
| 951 | Lone_Bacon2 | 3:00.31 | 0 | 0 |
| 952 | DecibHell | 3:00.34 | 0 | 0 |
| 953 | [GONCH] Norus212 ✠ | 3:00.79 | 0 | 0 |
| 954 | XCVIBUR | 3:00.97 | 0 | 0 |
| 955 | Bullet074 | 3:01.08 | 0 | 0 |
| 956 | Hawke | 3:01.11 | 0 | 0 |
| 957 | Lighti | 3:01.20 | 0 | 0 |
| 957 | PlΣXi | 3:01.20 | 0 | 0 |
| 959 | Mikouille | 3:01.24 | 0 | 0 |
| 960 | MiniD | 3:01.32 | 0 | 0 |
| 961 | Lemonist | 3:01.43 | 0 | 0 |
| 962 | [BIT] Iroden | 3:01.65 | 0 | 0 |
| 963 | Your own Hubris | 3:01.72 | 0 | 0 |
| 964 | Bear | 3:01.85 | 0 | 0 |
| 965 | Dropkick | 3:01.95 | 0 | 0 |
| 966 | Speeider | 3:02.29 | 0 | 0 |
| 967 | CJ | 3:02.45 | 0 | 0 |
| 968 | kr/ss | 3:02.53 | 0 | 0 |
| 969 | maess2ro | 3:02.55 | 0 | 0 |
| 970 | Ty1122 | 3:02.59 | 0 | 0 |
| 971 | rbrules | 3:02.67 | 0 | 0 |
| 972 | FuriousPhoenix | 3:02.73 | 0 | 0 |
| 973 | Anarchy | 3:02.87 | 0 | 0 |
| 974 | King | 3:02.96 | 0 | 0 |
| 975 | TheFluffyDragon/JBSTheGamer | 3:03.01 | 0 | 0 |
| 976 | TheRecessMaster101 | 3:03.15 | 0 | 0 |
| 977 | Fronzykun | 3:03.16 | 0 | 0 |
| 978 | Birdiot | 3:03.19 | 0 | 0 |
| 979 | Arnold~ | 3:03.21 | 0 | 0 |
| 980 | illustrious | 3:03.30 | 0 | 0 |
| 981 | Commander Victory | 3:03.32 | 0 | 0 |
| 982 | Gabagool | 3:03.38 | 0 | 0 |
| 983 | TrapLord | 3:03.51 | 0 | 0 |
| 984 | shrümii | 3:03.63 | 0 | 0 |
| 985 | AcidDragonGraugh | 3:03.69 | 0 | 0 |
| 986 | Pteroborne | 3:03.70 | 0 | 0 |
| 987 | DethHoun | 3:03.75 | 0 | 0 |
| 988 | Sentynel | 3:03.85 | 0 | 0 |
| 989 | RisingHERO19 | 3:03.92 | 0 | 0 |
| 990 | itsNinety_ | 3:04.14 | 0 | 0 |
| 991 | Locura | 3:04.41 | 0 | 0 |
| 992 | Metamorph | 3:04.43 | 0 | 0 |
| 993 | Sora | 3:04.46 | 0 | 0 |
| 994 | Blitz Pixel | 3:04.49 | 0 | 0 |
| 995 | Yo Yo Piraka | 3:04.54 | 0 | 0 |
| 996 | FifteenBread | 3:04.57 | 0 | 0 |
| 997 | Gemis037 | 3:04.76 | 0 | 0 |
| 998 | Relume | 3:04.79 | 0 | 0 |
| 998 | a beaver | 3:04.79 | 0 | 0 |
| 1,000 | Machine Entity | 3:04.92 | 0 | 0 |
| 1,000 | Julius_Geezer | 3:04.92 | 0 | 0 |
| 1,002 | Archi | 3:04.98 | 0 | 0 |
| 1,003 | Tokyo. | 3:05.01 | 0 | 0 |
| 1,004 | [deleted] | 3:05.13 | 0 | 0 |
| 1,005 | Meisolus | 3:05.14 | 0 | 0 |
| 1,006 | FrostCorp | 3:05.23 | 0 | 0 |
| 1,007 | Alesha170 | 3:05.47 | 0 | 0 |
| 1,008 | light | 3:05.65 | 0 | 0 |
| 1,009 | StoraLegs | 3:05.74 | 0 | 0 |
| 1,010 | Grimmy | 3:05.81 | 0 | 0 |
| 1,011 | CrazyPass | 3:05.86 | 0 | 0 |
| 1,012 | CleverlyStoopid | 3:06.07 | 0 | 0 |
| 1,013 | TheAechBomb | 3:06.10 | 0 | 0 |
| 1,014 | Viking_king | 3:06.29 | 0 | 0 |
| 1,015 | DomNation | 3:06.55 | 0 | 0 |
| 1,016 | Hiddelgreyk | 3:06.57 | 0 | 0 |
| 1,017 | Pepino | 3:06.60 | 0 | 0 |
| 1,018 | Dr. Spliffou | 3:06.73 | 0 | 0 |
| 1,019 | StoicSirius | 3:06.87 | 0 | 0 |
| 1,020 | Invoked Xardas | 3:07.16 | 0 | 0 |
| 1,021 | SKUZZIE | 3:07.20 | 0 | 0 |
| 1,022 | Pantseater | 3:07.21 | 0 | 0 |
| 1,023 | WeirdFTW | 3:07.24 | 0 | 0 |
| 1,024 | Sexecutioner | 3:07.28 | 0 | 0 |
| 1,025 | fettman53 | 3:07.50 | 0 | 0 |
| 1,025 | Isabella | 3:07.50 | 0 | 0 |
| 1,027 | PPTREXFFT | 3:07.66 | 0 | 0 |
| 1,028 | Meconis | 3:07.67 | 0 | 0 |
| 1,029 | Onur | 3:07.70 | 0 | 0 |
| 1,030 | WUG | 3:07.73 | 0 | 0 |
| 1,031 | Dimanchella | 3:07.81 | 0 | 0 |
| 1,032 | Mister JT | 3:07.85 | 0 | 0 |
| 1,033 | .png | 3:07.86 | 0 | 0 |
| 1,034 | crimes.against.art | 3:08.10 | 0 | 0 |
| 1,035 | LordPotato.json | 3:08.21 | 0 | 0 |
| 1,036 | Guy in Gold | 3:08.99 | 0 | 0 |
| 1,037 | GOOSE SATAN! | 3:09.18 | 0 | 0 |
| 1,038 | [Lard] Kriltch | 3:09.22 | 0 | 0 |
| 1,039 | ffngg | 3:09.29 | 0 | 0 |
| 1,040 | Xandrak | 3:09.46 | 0 | 0 |
| 1,040 | Piiec | 3:09.46 | 0 | 0 |
| 1,042 | TOYTOY | 3:09.59 | 0 | 0 |
| 1,043 | Bratalix | 3:09.60 | 0 | 0 |
| 1,044 | Zeo | 3:09.74 | 0 | 0 |
| 1,045 | Metastreumonic | 3:09.94 | 0 | 0 |
| 1,046 | Spartan117® | 3:10.29 | 0 | 0 |
| 1,047 | Logo$(ru) | 3:10.34 | 0 | 0 |
| 1,047 | NIRV007 | 3:10.34 | 0 | 0 |
| 1,049 | R0gu3Sentin3l | 3:10.39 | 0 | 0 |
| 1,050 | Pato | 3:10.40 | 0 | 0 |
| 1,051 | Leon | 3:10.45 | 0 | 0 |
| 1,052 | Ghetto Cornflakes | 3:10.59 | 0 | 0 |
| 1,053 | Bdine | 3:10.64 | 0 | 0 |
| 1,054 | kuvni | 3:10.78 | 0 | 0 |
| 1,055 | MarrowMerrow | 3:10.90 | 0 | 0 |
| 1,056 | MisinformedOwl | 3:11.05 | 0 | 0 |
| 1,057 | Rustal | 3:11.21 | 0 | 0 |
| 1,058 | Alfael | 3:11.29 | 0 | 0 |
| 1,059 | Sixprey | 3:11.47 | 0 | 0 |
| 1,060 | Biggus Bovinus | 3:11.64 | 0 | 0 |
| 1,061 | Chucho14YT | 3:11.84 | 0 | 0 |
| 1,062 | Vinnie Scumbolli | 3:12.01 | 0 | 0 |
| 1,063 | Cpt Sauce Bucket | 3:12.10 | 0 | 0 |
| 1,063 | LucileStarlight | 3:12.10 | 0 | 0 |
| 1,065 | Larkman | 3:12.25 | 0 | 0 |
| 1,065 | DarkShadow | 3:12.25 | 0 | 0 |
| 1,065 | Lvnatic.oo | 3:12.25 | 0 | 0 |
| 1,068 | Grigori | 3:12.27 | 0 | 0 |
| 1,069 | B'neppe | 3:12.28 | 0 | 0 |
| 1,070 | Negaprion | 3:12.47 | 0 | 0 |
| 1,071 | Auston777 | 3:12.48 | 0 | 0 |
| 1,071 | Majae102 | 3:12.48 | 0 | 0 |
| 1,073 | Crespojazzman | 3:12.61 | 0 | 0 |
| 1,074 | Samuel | 3:12.69 | 0 | 0 |
| 1,075 | ShotgunSalad | 3:12.85 | 0 | 0 |
| 1,076 | RockBoyy | 3:12.99 | 0 | 0 |
| 1,077 | stronxyo | 3:13.10 | 0 | 0 |
| 1,077 | Owem | 3:13.10 | 0 | 0 |
| 1,079 | Hirtol | 3:13.45 | 0 | 0 |
| 1,080 | Vegetable Broth | 3:13.47 | 0 | 0 |
| 1,081 | Reaster | 3:13.76 | 0 | 0 |
| 1,082 | Kretfix | 3:14.09 | 0 | 0 |
| 1,083 | SlenderBonnie | 3:14.46 | 0 | 0 |
| 1,084 | Mouseochism | 3:14.73 | 0 | 0 |
| 1,085 | Lena The Snom Mom | 3:14.79 | 0 | 0 |
| 1,086 | Nerologicals | 3:15.00 | 0 | 0 |
| 1,087 | Rystren | 3:15.02 | 0 | 0 |
| 1,088 | ⛧ Guky ⛧ | 3:15.08 | 0 | 0 |
| 1,089 | Ellena | 3:15.33 | 0 | 0 |
| 1,090 | Koffiekopje | 3:15.35 | 0 | 0 |
| 1,091 | Spark79 | 3:15.46 | 0 | 0 |
| 1,092 | scorpius | 3:15.49 | 0 | 0 |
| 1,093 | Bilbobangboom | 3:15.65 | 0 | 0 |
| 1,094 | ultradraco651 | 3:15.74 | 0 | 0 |
| 1,095 | [GNOMCH] Blans | 3:16.14 | 0 | 0 |
| 1,096 | Yes, I *do main this character | 3:16.22 | 0 | 0 |
| 1,097 | MystykZ | 3:16.44 | 0 | 0 |
| 1,098 | Arriow | 3:16.51 | 0 | 0 |
| 1,099 | joshrod | 3:16.99 | 0 | 0 |
| 1,100 | MrDB | 3:17.15 | 0 | 0 |
| 1,101 | Neenis | 3:17.27 | 0 | 0 |
| 1,102 | Ahhrealpeople | 3:17.43 | 0 | 0 |
| 1,103 | Splatyキャティ | 3:17.50 | 0 | 0 |
| 1,104 | EletroZé | 3:17.66 | 0 | 0 |
| 1,105 | UNSCSayMyName | 3:17.69 | 0 | 0 |
| 1,106 | Fuzzypanda1332 | 3:17.74 | 0 | 0 |
| 1,107 | Huntzilla | 3:18.09 | 0 | 0 |
| 1,108 | tipek360 | 3:18.47 | 0 | 0 |
| 1,109 | Calcarious | 3:18.62 | 0 | 0 |
| 1,110 | Jeems-Sama | 3:18.74 | 0 | 0 |
| 1,111 | surfingwzl | 3:19.05 | 0 | 0 |
| 1,112 | T'mon The Fat | 3:19.13 | 0 | 0 |
| 1,113 | tripl3773ight | 3:19.44 | 0 | 0 |
| 1,114 | Billy Bat | 3:19.69 | 0 | 0 |
| 1,115 | dollcorpsething | 3:20.06 | 0 | 0 |
| 1,116 | yes... yobby | 3:20.14 | 0 | 0 |
| 1,117 | krashy | 3:20.19 | 0 | 0 |
| 1,118 | aaeriam | 3:20.26 | 0 | 0 |
| 1,118 | Geraldo | 3:20.26 | 0 | 0 |
| 1,120 | SilentSpike | 3:20.45 | 0 | 0 |
| 1,121 | Starwhal | 3:20.80 | 0 | 0 |
| 1,122 | Redx | 3:21.25 | 0 | 0 |
| 1,122 | Chicago Grim Reaper | 3:21.25 | 0 | 0 |
| 1,124 | Acrue | 3:21.29 | 0 | 0 |
| 1,125 | Sev | 3:21.57 | 0 | 0 |
| 1,126 | Loys Nuva | 3:21.77 | 0 | 0 |
| 1,127 | Sky Gunnar | 3:21.80 | 0 | 0 |
| 1,128 | Louis Thau | 3:21.81 | 0 | 0 |
| 1,129 | BigBang | 3:21.90 | 0 | 0 |
| 1,130 | Skrall' | 3:22.04 | 0 | 0 |
| 1,131 | SkyRunner888 | 3:22.39 | 0 | 0 |
| 1,132 | jeffrey0415 | 3:22.46 | 0 | 0 |
| 1,133 | Toxicologixal | 3:22.76 | 0 | 0 |
| 1,134 | Dinrael | 3:22.79 | 0 | 0 |
| 1,135 | A Very Angy Opossum | 3:22.98 | 0 | 0 |
| 1,136 | Adventure Buddy | 3:23.32 | 0 | 0 |
| 1,137 | Zodijackyl Light | 3:23.33 | 0 | 0 |
| 1,138 | Torch | 3:23.38 | 0 | 0 |
| 1,139 | Alex | 3:23.40 | 0 | 0 |
| 1,140 | EndskendV | 3:23.58 | 0 | 0 |
| 1,141 | EBTKS Paddy | 3:23.60 | 0 | 0 |
| 1,142 | Disconnected | 3:23.65 | 0 | 0 |
| 1,143 | Sir Johan | 3:23.88 | 0 | 0 |
| 1,144 | North Wood | 3:23.93 | 0 | 0 |
| 1,145 | Parallax | 3:24.72 | 0 | 0 |
| 1,146 | Dazzle10 | 3:24.73 | 0 | 0 |
| 1,147 | Lunas | 3:25.09 | 0 | 0 |
| 1,148 | Snerlop | 3:25.38 | 0 | 0 |
| 1,149 | TartanKitty773 | 3:25.41 | 0 | 0 |
| 1,150 | CuteSuissyLePoneySuisse | 3:25.64 | 0 | 0 |
| 1,151 | astralFitz | 3:25.73 | 0 | 0 |
| 1,152 | GetEmOtterHere | 3:25.78 | 0 | 0 |
| 1,153 | BlazeHedgehog | 3:26.06 | 0 | 0 |
| 1,154 | Verity | 3:26.07 | 0 | 0 |
| 1,155 | Smurph | 3:26.16 | 0 | 0 |
| 1,156 | IkkouSoryu | 3:26.23 | 0 | 0 |
| 1,157 | PalmTopDuck | 3:26.54 | 0 | 0 |
| 1,158 | blamecoopa | 3:26.80 | 0 | 0 |
| 1,159 | Aniv | 3:26.87 | 0 | 0 |
| 1,160 | ArcaneNarwhal | 3:26.97 | 0 | 0 |
| 1,161 | Melon | 3:27.11 | 0 | 0 |
| 1,162 | Nhyks | 3:27.46 | 0 | 0 |
| 1,163 | Mori | 3:27.76 | 0 | 0 |
| 1,164 | Horus1939 | 3:27.81 | 0 | 0 |
| 1,165 | Kunya The Scoot | 3:27.90 | 0 | 0 |
| 1,166 | rezzonating | 3:28.22 | 0 | 0 |
| 1,167 | Pexillien | 3:28.48 | 0 | 0 |
| 1,168 | Oddrunn | 3:28.58 | 0 | 0 |
| 1,169 | Hrevff | 3:28.74 | 0 | 0 |
| 1,170 | Toojes | 3:28.95 | 0 | 0 |
| 1,171 | ratgirl | 3:29.02 | 0 | 0 |
| 1,172 | Sassy | 3:29.07 | 0 | 0 |
| 1,173 | Rush | 3:29.43 | 0 | 0 |
| 1,174 | LauraPetal | 3:29.68 | 0 | 0 |
| 1,175 | A Live Studio Audience | 3:29.99 | 0 | 0 |
| 1,176 | LordOfLemon | 3:30.43 | 0 | 0 |
| 1,177 | ThetruBman | 3:30.62 | 0 | 0 |
| 1,178 | Zombie | 3:30.63 | 0 | 0 |
| 1,179 | jetknife | 3:30.87 | 0 | 0 |
| 1,180 | Awesomedan | 3:30.92 | 0 | 0 |
| 1,181 | JaCKeT:( | 3:31.10 | 0 | 0 |
| 1,182 | Walthorne | 3:31.18 | 0 | 0 |
| 1,183 | in-term-ezzo | 3:31.21 | 0 | 0 |
| 1,183 | Pink | 3:31.21 | 0 | 0 |
| 1,185 | Ember | 3:31.35 | 0 | 0 |
| 1,186 | Sky_ | 3:31.36 | 0 | 0 |
| 1,187 | Mired | 3:31.46 | 0 | 0 |
| 1,188 | a&b | 3:31.63 | 0 | 0 |
| 1,188 | JHoeps | 3:31.63 | 0 | 0 |
| 1,190 | redeclipse21 | 3:32.37 | 0 | 0 |
| 1,191 | Wem | 3:32.44 | 0 | 0 |
| 1,192 | Mechanikal Subdivide | 3:32.47 | 0 | 0 |
| 1,193 | BlueJFeo | 3:32.54 | 0 | 0 |
| 1,193 | God's Dad | 3:32.54 | 0 | 0 |
| 1,195 | Mr. Moebius | 3:32.68 | 0 | 0 |
| 1,196 | Athice | 3:32.85 | 0 | 0 |
| 1,197 | Azgeda | 3:33.08 | 0 | 0 |
| 1,198 | Elias | 3:33.28 | 0 | 0 |
| 1,199 | passe_riviere | 3:33.33 | 0 | 0 |
| 1,200 | Voltaic | 3:33.40 | 0 | 0 |
| 1,201 | Bum Farto | 3:33.42 | 0 | 0 |
| 1,202 | ReverseUno | 3:33.50 | 0 | 0 |
| 1,203 | Bubblegum Cuddly Dragoness | 3:33.84 | 0 | 0 |
| 1,204 | Moe | 3:33.95 | 0 | 0 |
| 1,205 | strawberry | 3:34.14 | 0 | 0 |
| 1,206 | Patches | 3:34.87 | 0 | 0 |
| 1,207 | Nephuxs | 3:34.98 | 0 | 0 |
| 1,208 | Ar7icP3nguin | 3:35.02 | 0 | 0 |
| 1,209 | Сосёна | 3:35.65 | 0 | 0 |
| 1,210 | AMexii | 3:35.74 | 0 | 0 |
| 1,211 | mmph | 3:35.76 | 0 | 0 |
| 1,212 | Pryzee7 | 3:35.77 | 0 | 0 |
| 1,213 | luxmn | 3:36.02 | 0 | 0 |
| 1,214 | 3:36.26 | 0 | 0 | |
| 1,215 | Excalibait | 3:36.34 | 0 | 0 |
| 1,216 | NanoFren | 3:36.76 | 0 | 0 |
| 1,217 | PANDAVTF | 3:36.83 | 0 | 0 |
| 1,218 | Meldiron | 3:37.30 | 0 | 0 |
| 1,219 | NakDak | 3:37.72 | 0 | 0 |
| 1,220 | Aldebaran | 3:37.95 | 0 | 0 |
| 1,221 | lfighter | 3:37.98 | 0 | 0 |
| 1,221 | Ornar | 3:37.98 | 0 | 0 |
| 1,223 | ワシねこ | 3:38.14 | 0 | 0 |
| 1,224 | frgo | 3:38.26 | 0 | 0 |
| 1,225 | Kerusos | 3:38.33 | 0 | 0 |
| 1,226 | Catrix | 3:38.34 | 0 | 0 |
| 1,227 | Seal_Otter | 3:38.44 | 0 | 0 |
| 1,228 | Wulg | 3:38.57 | 0 | 0 |
| 1,229 | Bon | 3:38.59 | 0 | 0 |
| 1,230 | Rhy | 3:38.76 | 0 | 0 |
| 1,231 | RinsDoll | 3:38.91 | 0 | 0 |
| 1,232 | enerszon | 3:38.93 | 0 | 0 |
| 1,233 | Schmuggums McGee | 3:39.14 | 0 | 0 |
| 1,234 | Chillerdew | 3:39.61 | 0 | 0 |
| 1,235 | SaxyBoi | 3:39.64 | 0 | 0 |
| 1,236 | Laughter | 3:39.74 | 0 | 0 |
| 1,237 | Mr. Doggy | 3:39.79 | 0 | 0 |
| 1,238 | R1PP | 3:39.86 | 0 | 0 |
| 1,239 | TurtleByte | 3:40.15 | 0 | 0 |
| 1,240 | maximumrider_99 | 3:40.64 | 0 | 0 |
| 1,241 | Traxun | 3:40.82 | 0 | 0 |
| 1,242 | Infamous Kizz | 3:41.45 | 0 | 0 |
| 1,243 | Bohemius | 3:41.56 | 0 | 0 |
| 1,244 | Ices Blaze | 3:41.70 | 0 | 0 |
| 1,245 | ERIC STRIKE INCOMING | 3:42.10 | 0 | 0 |
| 1,246 | bowie knife99 | 3:42.29 | 0 | 0 |
| 1,247 | Tayko | 3:42.39 | 0 | 0 |
| 1,248 | Icelyne | 3:42.83 | 0 | 0 |
| 1,249 | generally incompetent | 3:43.29 | 0 | 0 |
| 1,250 | LissomChunk | 3:43.67 | 0 | 0 |
| 1,251 | destroyer2012 | 3:44.24 | 0 | 0 |
| 1,252 | Debleck | 3:44.54 | 0 | 0 |
| 1,252 | Garstine | 3:44.54 | 0 | 0 |
| 1,254 | StolenSouls | 3:44.63 | 0 | 0 |
| 1,255 | Lupeling | 3:44.72 | 0 | 0 |
| 1,256 | 𝘍𝘙 | 3:45.17 | 0 | 0 |
| 1,257 | Pinguin | 3:45.24 | 0 | 0 |
| 1,258 | Carrots Pringle | 3:45.51 | 0 | 0 |
| 1,259 | Aimbrot, die Seegurke | 3:46.47 | 0 | 0 |
| 1,260 | VP_Halo | 3:46.48 | 0 | 0 |
| 1,261 | Let the Aerin | 3:46.61 | 0 | 0 |
| 1,262 | BillyWitchDoctor | 3:47.49 | 0 | 0 |
| 1,263 | Red Sasori | 3:48.44 | 0 | 0 |
| 1,264 | Getty Image Egg Supreme | 3:48.47 | 0 | 0 |
| 1,265 | Emazeco | 3:48.68 | 0 | 0 |
| 1,266 | croc | 3:48.89 | 0 | 0 |
| 1,267 | Eleven27 | 3:49.11 | 0 | 0 |
| 1,268 | Pingu | 3:49.35 | 0 | 0 |
| 1,269 | little miss steak | 3:49.85 | 0 | 0 |
| 1,270 | Mr. Pooch | 3:49.93 | 0 | 0 |
| 1,271 | Skitter | 3:50.54 | 0 | 0 |
| 1,272 | Matt | 3:50.87 | 0 | 0 |
| 1,273 | CyberZott | 3:51.04 | 0 | 0 |
| 1,274 | IvanTheTerrible | 3:51.12 | 0 | 0 |
| 1,275 | herra | 3:51.46 | 0 | 0 |
| 1,276 | Teqila | 3:51.93 | 0 | 0 |
| 1,277 | Death Edge | 3:52.00 | 0 | 0 |
| 1,278 | ZSoup | 3:52.55 | 0 | 0 |
| 1,279 | Traco | 3:53.00 | 0 | 0 |
| 1,279 | MLG_SNIPER | 3:53.00 | 0 | 0 |
| 1,281 | Flavio | 3:53.04 | 0 | 0 |
| 1,282 | Kalimbato | 3:53.53 | 0 | 0 |
| 1,283 | Voltage | 3:53.91 | 0 | 0 |
| 1,284 | <color=#00c9ff>Sans | 3:54.01 | 0 | 0 |
| 1,285 | enejūto | 3:54.07 | 0 | 0 |
| 1,286 | concil | 3:54.27 | 0 | 0 |
| 1,287 | NostalgicRage | 3:54.52 | 0 | 0 |
| 1,288 | BEE | 3:54.69 | 0 | 0 |
| 1,289 | HiiragiShinoa | 3:54.73 | 0 | 0 |
| 1,290 | boned avery | 3:54.74 | 0 | 0 |
| 1,291 | CrescendoFuri | 3:54.75 | 0 | 0 |
| 1,292 | Kazie | 3:55.02 | 0 | 0 |
| 1,293 | Riku~Anita | 3:55.20 | 0 | 0 |
| 1,294 | biohazardbattle | 3:55.41 | 0 | 0 |
| 1,295 | SaltedFork | 3:55.75 | 0 | 0 |
| 1,296 | Puff | 3:55.89 | 0 | 0 |
| 1,297 | Mr. Beefy | 3:55.98 | 0 | 0 |
| 1,298 | Rerun | 3:56.10 | 0 | 0 |
| 1,299 | Half | 3:56.77 | 0 | 0 |
| 1,300 | AetheR | 3:58.56 | 0 | 0 |
| 1,301 | rocmanx654 | 3:59.27 | 0 | 0 |
| 1,302 | The Law | 3:59.51 | 0 | 0 |
| 1,303 | Cunk | 4:00.28 | 0 | 0 |
| 1,304 | SIX | 4:00.45 | 0 | 0 |
| 1,305 | siko | 4:01.10 | 0 | 0 |
| 1,306 | Dumau_144 | 4:01.34 | 0 | 0 |
| 1,307 | Dannie | 4:02.09 | 0 | 0 |
| 1,308 | fedex | 4:02.27 | 0 | 0 |
| 1,309 | HardRoar|CEOofSex | 4:02.58 | 0 | 0 |
| 1,310 | You Are Valid | 4:02.79 | 0 | 0 |
| 1,311 | Poriorderporonopitonojiodebe | 4:03.01 | 0 | 0 |
| 1,312 | Loreckine | 4:03.03 | 0 | 0 |
| 1,313 | WitchOnFire | 4:03.44 | 0 | 0 |
| 1,314 | SERAVEE | 4:03.62 | 0 | 0 |
| 1,315 | Sappytron | 4:03.71 | 0 | 0 |
| 1,316 | Ondeocabamijaqui? | 4:03.83 | 0 | 0 |
| 1,317 | Human Required | 4:04.13 | 0 | 0 |
| 1,318 | Acedia | 4:04.33 | 0 | 0 |
| 1,319 | meziter260 | 4:04.38 | 0 | 0 |
| 1,320 | Devil Z | 4:04.84 | 0 | 0 |
| 1,321 | pager | 4:05.01 | 0 | 0 |
| 1,322 | Big Boi Bazunga | 4:05.37 | 0 | 0 |
| 1,323 | and kevin bacon | 4:05.47 | 0 | 0 |
| 1,324 | --TuttiFrutti-- | 4:05.87 | 0 | 0 |
| 1,325 | Regty | 4:05.88 | 0 | 0 |
| 1,326 | Commander Crack | 4:06.23 | 0 | 0 |
| 1,327 | XLgeneral | 4:06.37 | 0 | 0 |
| 1,328 | shsnuzzle | 4:07.93 | 0 | 0 |
| 1,329 | enJohneering | 4:08.38 | 0 | 0 |
| 1,330 | GoldenPresence | 4:09.56 | 0 | 0 |
| 1,331 | Pinapl | 4:09.59 | 0 | 0 |
| 1,332 | . | 4:10.76 | 0 | 0 |
| 1,333 | Big Disk | 4:11.18 | 0 | 0 |
| 1,334 | AtomicRobot | 4:11.60 | 0 | 0 |
| 1,335 | Leito317 | 4:11.99 | 0 | 0 |
| 1,336 | Dramatic Look Gopher | 4:13.29 | 0 | 0 |
| 1,337 | elder matthew | 4:13.42 | 0 | 0 |
| 1,338 | Yaki | 4:13.47 | 0 | 0 |
| 1,339 | Beastman | 4:14.22 | 0 | 0 |
| 1,340 | Donkey | 4:14.24 | 0 | 0 |
| 1,340 | Lucas "HyPeRXKo" | 4:14.24 | 0 | 0 |
| 1,342 | Kleimann | 4:14.62 | 0 | 0 |
| 1,343 | Coopstar2323 | 4:14.74 | 0 | 0 |
| 1,344 | poopadoopaloopa | 4:15.85 | 0 | 0 |
| 1,345 | M.C. Splashdown | 4:15.94 | 0 | 0 |
| 1,346 | TheZelen | 4:16.14 | 0 | 0 |
| 1,347 | MotavianHunter | 4:17.89 | 0 | 0 |
| 1,348 | iamzim | 4:17.93 | 0 | 0 |
| 1,349 | Metvra | 4:18.23 | 0 | 0 |
| 1,350 | Doorcrusher | 4:18.86 | 0 | 0 |
| 1,351 | Indigo | 4:19.72 | 0 | 0 |
| 1,352 | Narcisska | 4:21.67 | 0 | 0 |
| 1,353 | petlander | 4:22.43 | 0 | 0 |
| 1,354 | rz zombie | 4:22.49 | 0 | 0 |
| 1,355 | olivia | 4:22.74 | 0 | 0 |
| 1,356 | Sokkero | 4:23.51 | 0 | 0 |
| 1,357 | Miniturk | 4:23.62 | 0 | 0 |
| 1,358 | Tectronic | 4:24.31 | 0 | 0 |
| 1,359 | Glypse | 4:24.34 | 0 | 0 |
| 1,360 | Professor Scrub | 4:25.40 | 0 | 0 |
| 1,361 | KianNotCyan | 4:25.54 | 0 | 0 |
| 1,362 | Ben-E | 4:25.81 | 0 | 0 |
| 1,363 | Goshanchik1337 | 4:26.30 | 0 | 0 |
| 1,364 | Despo_357 | 4:26.81 | 0 | 0 |
| 1,365 | Goblin | 4:27.75 | 0 | 0 |
| 1,366 | The-Lemme | 4:28.03 | 0 | 0 |
| 1,367 | Drillos | 4:28.09 | 0 | 0 |
| 1,368 | Raiyson Terrorwing | 4:28.27 | 0 | 0 |
| 1,369 | Foster | 4:28.52 | 0 | 0 |
| 1,370 | BYTC | 4:29.90 | 0 | 0 |
| 1,371 | Uganda Knuckles | 4:30.17 | 0 | 0 |
| 1,372 | Pancho★Pistolas | 4:30.74 | 0 | 0 |
| 1,373 | Your balls will love this! | 4:30.76 | 0 | 0 |
| 1,374 | SharoffKot | 4:31.75 | 0 | 0 |
| 1,375 | Евгений Пригожин | 4:31.80 | 0 | 0 |
| 1,376 | leather n studs bracelet | 4:33.39 | 0 | 0 |
| 1,377 | mirandaaaxo | 4:35.12 | 0 | 0 |
| 1,378 | Протез человека | 4:36.02 | 0 | 0 |
| 1,379 | Шоколадка:) | 4:36.58 | 0 | 0 |
| 1,380 | Kaiji is moe | 4:36.76 | 0 | 0 |
| 1,381 | boog2theman | 4:37.32 | 0 | 0 |
| 1,382 | Kubulinux | 4:38.14 | 0 | 0 |
| 1,383 | Scrittore | 4:38.87 | 0 | 0 |
| 1,384 | squirreljiz | 4:41.72 | 0 | 0 |
| 1,385 | Edelgard von Hresvelg | 4:41.83 | 0 | 0 |
| 1,386 | Samukazangetsu | 4:41.94 | 0 | 0 |
| 1,387 | Friendo | 4:42.41 | 0 | 0 |
| 1,388 | Mathias | 4:42.50 | 0 | 0 |
| 1,389 | markosanya44 | 4:42.72 | 0 | 0 |
| 1,390 | catbotz | 4:45.49 | 0 | 0 |
| 1,391 | Pedro | 4:45.79 | 0 | 0 |
| 1,392 | OK | 4:47.58 | 0 | 0 |
| 1,393 | Archelon | 4:48.48 | 0 | 0 |
| 1,394 | *notices ur dreams* | 4:48.66 | 0 | 0 |
| 1,395 | NormalFrog | 4:49.98 | 0 | 0 |
| 1,396 | NoiceFox | 4:50.13 | 0 | 0 |
| 1,397 | RaceRider | 4:50.35 | 0 | 0 |
| 1,398 | V | 4:50.36 | 0 | 0 |
| 1,399 | Thereal_Blade99 | 4:50.73 | 0 | 0 |
| 1,400 | JAZZY-J | 4:51.59 | 0 | 0 |
| 1,401 | Líong Phük | 4:53.01 | 0 | 0 |
| 1,402 | GoldenGuy | 4:54.39 | 0 | 0 |
| 1,403 | The Good Gaming Dragon | 4:54.52 | 0 | 0 |
| 1,404 | Magovitch | 4:54.98 | 0 | 0 |
| 1,405 | Mx | 4:55.95 | 0 | 0 |
| 1,406 | supa scoopa | 4:56.24 | 0 | 0 |
| 1,407 | RedRiotRoss | 5:00.48 | 0 | 0 |
| 1,408 | Rocket Lad | 5:01.22 | 0 | 0 |
| 1,409 | Quarterware | 5:02.50 | 0 | 0 |
| 1,410 | !G0 | 5:03.16 | 0 | 0 |
| 1,411 | Chaos Chris | 5:07.88 | 0 | 0 |
| 1,412 | Lizardizzle | 5:08.13 | 0 | 0 |
| 1,413 | Screws | 5:09.31 | 0 | 0 |
| 1,414 | Drashneer | 5:10.01 | 0 | 0 |
| 1,415 | Birsol | 5:10.28 | 0 | 0 |
| 1,416 | Ventus | 5:11.86 | 0 | 0 |
| 1,417 | Corey | 5:11.90 | 0 | 0 |
| 1,418 | PUR3 | 5:11.98 | 0 | 0 |
| 1,419 | KM_Iguana | 5:13.11 | 0 | 0 |
| 1,420 | Okami 天照 | 5:13.60 | 0 | 0 |
| 1,421 | SirLiveAlot | 5:15.53 | 0 | 0 |
| 1,422 | Thunder | 5:15.70 | 0 | 0 |
| 1,423 | NekoNachi | 5:16.97 | 0 | 0 |
| 1,424 | Brando Multin | 5:17.57 | 0 | 0 |
| 1,425 | NSB | 5:18.28 | 0 | 0 |
| 1,426 | Dany W. | 5:18.95 | 0 | 0 |
| 1,427 | Ape Tea | 5:18.97 | 0 | 0 |
| 1,428 | Elettricità Sovieta | 5:19.99 | 0 | 0 |
| 1,429 | Light-Pulsing | 5:21.52 | 0 | 0 |
| 1,430 | Apple | 5:22.45 | 0 | 0 |
| 1,431 | Zastier | 5:23.02 | 0 | 0 |
| 1,432 | blub | 5:24.07 | 0 | 0 |
| 1,433 | Tecknoth | 5:25.15 | 0 | 0 |
| 1,434 | Konomi☆Nanasaki | 5:25.49 | 0 | 0 |
| 1,435 | Twaddle | 5:26.03 | 0 | 0 |
| 1,436 | blue_party_hat | 5:26.27 | 0 | 0 |
| 1,437 | John34645 | 5:28.17 | 0 | 0 |
| 1,438 | Beeg Boss | 5:30.47 | 0 | 0 |
| 1,439 | Gloþ | 5:31.57 | 0 | 0 |
| 1,440 | Silverstop | 5:33.26 | 0 | 0 |
| 1,441 | mokkli | 5:33.90 | 0 | 0 |
| 1,442 | S P A T H ☆ | 5:38.99 | 0 | 0 |
| 1,443 | MrChicago | 5:39.37 | 0 | 0 |
| 1,444 | Blaauwadder | 5:39.49 | 0 | 0 |
| 1,445 | Mega Mike 70 | 5:39.56 | 0 | 0 |
| 1,446 | Omega_Raptors | 5:43.07 | 0 | 0 |
| 1,447 | Shadowboot | 5:43.84 | 0 | 0 |
| 1,448 | Abssatou | 5:44.52 | 0 | 0 |
| 1,449 | Wyattwashere | 5:52.65 | 0 | 0 |
| 1,450 | Axhilis | 6:00.37 | 0 | 0 |
| 1,451 | Whole Ass'd Attempt | 6:01.03 | 0 | 0 |
| 1,452 | Storm Blade | 6:02.17 | 0 | 0 |
| 1,453 | Uldergoff | 6:09.60 | 0 | 0 |
| 1,454 | 5taquitos | 6:13.96 | 0 | 0 |
| 1,455 | bootsea | 6:35.69 | 0 | 0 |
| 1,456 | iffy | 6:36.49 | 0 | 0 |
| 1,457 | Ruleworld | 6:37.54 | 0 | 0 |
| 1,458 | dTheMouseb | 6:37.81 | 0 | 0 |
| 1,459 | RabbiT | 6:38.12 | 0 | 0 |
| 1,460 | Zoombie_™ | 6:46.26 | 0 | 0 |
| 1,461 | AndonisLP | 6:55.54 | 0 | 0 |
| 1,462 | 장기마스터 | 7:01.04 | 0 | 0 |
| 1,463 | OverLightZ | 7:03.91 | 0 | 0 |
| 1,464 | TehJoker14780 | 7:40.36 | 0 | 0 |
| 1,465 | dany_ev3 | 7:59.21 | 0 | 0 |
| 1,466 | Master Green Fox | 8:03.59 | 0 | 0 |
| 1,467 | Kineticzz | 8:04.17 | 0 | 0 |
| 1,468 | Mr Icarus | 8:32.26 | 0 | 0 |
| 1,469 | Damok | 8:46.58 | 0 | 0 |
| 1,470 | tet | 9:00.04 | 0 | 0 |
| 1,471 | Jaazielito | 11:59.06 | 0 | 0 |
HoldGrip